Wetterdaten: Mittwoch, 22.01.2014
Datum Zeit Temp. Aussen +5cm Feuchte Auss Luftdruck Regen Sonnenschein Regendauer UV Solar Windben
22.01.2014 00:00 3,6 C 2,2 C 95 % 1012,6 hPa 0,0 l/m 0 min 0 min 0,0 UV-I 0 W/m 0,0 km/h (0 Bft)
22.01.2014 00:02 3,6 C 2,2 C 95 % 1012,8 hPa 0,0 l/m 0 min 0 min 0,0 UV-I 0 W/m 0,0 km/h (0 Bft)
22.01.2014 00:04 3,6 C 2,2 C 95 % 1012,7 hPa 0,0 l/m 0 min 0 min 0,0 UV-I 0 W/m 0,0 km/h (0 Bft)
22.01.2014 00:06 3,6 C 2,2 C 95 % 1012,6 hPa 0,0 l/m 0 min 0 min 0,0 UV-I 0 W/m 2,6 km/h (1 Bft)
22.01.2014 00:08 3,6 C 2,2 C 95 % 1012,6 hPa 0,0 l/m 0 min 0 min 0,0 UV-I 0 W/m 0,0 km/h (0 Bft)
22.01.2014 00:10 3,6 C 2,2 C 95 % 1012,5 hPa 0,0 l/m 0 min 0 min 0,0 UV-I 0 W/m 0,0 km/h (0 Bft)
22.01.2014 00:12 3,6 C 2,2 C 95 % 1012,6 hPa 0,0 l/m 0 min 0 min 0,0 UV-I 0 W/m 0,0 km/h (0 Bft)
22.01.2014 00:14 3,5 C 2,2 C 95 % 1012,6 hPa 0,0 l/m 0 min 0 min 0,0 UV-I 0 W/m 2,6 km/h (1 Bft)
22.01.2014 00:16 3,5 C 2,2 C 95 % 1012,6 hPa 0,0 l/m 0 min 0 min 0,0 UV-I 0 W/m 0,0 km/h (0 Bft)
22.01.2014 00:18 3,5 C 2,2 C 95 % 1012,8 hPa 0,0 l/m 0 min 0 min 0,0 UV-I 0 W/m 0,0 km/h (0 Bft)
22.01.2014 00:20 3,5 C 2,2 C 95 % 1012,8 hPa 0,0 l/m 0 min 0 min 0,0 UV-I 0 W/m 0,0 km/h (0 Bft)
22.01.2014 00:22 3,5 C 2,2 C 95 % 1012,6 hPa 0,0 l/m 0 min 0 min 0,0 UV-I 0 W/m 2,6 km/h (1 Bft)
22.01.2014 00:24 3,5 C 2,2 C 95 % 1012,7 hPa 0,0 l/m 0 min 0 min 0,0 UV-I 0 W/m 0,0 km/h (0 Bft)
22.01.2014 00:26 3,5 C 2,2 C 95 % 1012,6 hPa 0,0 l/m 0 min 0 min 0,0 UV-I 0 W/m 7,7 km/h (2 Bft)
22.01.2014 00:28 3,5 C 2,2 C 95 % 1012,7 hPa 0,0 l/m 0 min 0 min 0,0 UV-I 0 W/m 0,0 km/h (0 Bft)
22.01.2014 00:30 3,5 C 2,2 C 95 % 1012,7 hPa 0,0 l/m 0 min 0 min 0,0 UV-I 0 W/m 2,6 km/h (1 Bft)
22.01.2014 00:32 3,5 C 2,2 C 95 % 1012,6 hPa 0,0 l/m 0 min 0 min 0,0 UV-I 0 W/m 0,0 km/h (0 Bft)
22.01.2014 00:34 3,5 C 2,2 C 95 % 1012,7 hPa 0,0 l/m 0 min 0 min 0,0 UV-I 0 W/m 2,6 km/h (1 Bft)
22.01.2014 00:36 3,5 C 2,2 C 95 % 1012,8 hPa 0,0 l/m 0 min 0 min 0,0 UV-I 0 W/m 0,0 km/h (0 Bft)
22.01.2014 00:38 3,4 C 2,2 C 95 % 1012,8 hPa 0,0 l/m 0 min 0 min 0,0 UV-I 0 W/m 0,0 km/h (0 Bft)
22.01.2014 00:40 3,4 C 2,2 C 95 % 1012,7 hPa 0,0 l/m 0 min 0 min 0,0 UV-I 0 W/m 0,0 km/h (0 Bft)
22.01.2014 00:42 3,4 C 2,2 C 95 % 1012,7 hPa 0,0 l/m 0 min 0 min 0,0 UV-I 0 W/m 0,0 km/h (0 Bft)
22.01.2014 00:44 3,4 C 2,2 C 95 % 1012,7 hPa 0,0 l/m 0 min 0 min 0,0 UV-I 0 W/m 0,0 km/h (0 Bft)
22.01.2014 00:46 3,4 C 2,2 C 95 % 1012,7 hPa 0,0 l/m 0 min 0 min 0,0 UV-I 0 W/m 0,0 km/h (0 Bft)
22.01.2014 00:48 3,4 C 2,2 C 95 % 1012,7 hPa 0,0 l/m 0 min 0 min 0,0 UV-I 0 W/m 0,0 km/h (0 Bft)
22.01.2014 00:50 3,4 C 2,2 C 95 % 1012,7 hPa 0,0 l/m 0 min 0 min 0,0 UV-I 0 W/m 0,0 km/h (0 Bft)
22.01.2014 00:52 3,4 C 2,2 C 95 % 1012,8 hPa 0,0 l/m 0 min 0 min 0,0 UV-I 0 W/m 5,1 km/h (1 Bft)
22.01.2014 00:54 3,4 C 2,2 C 95 % 1012,8 hPa 0,0 l/m 0 min 0 min 0,0 UV-I 0 W/m 0,0 km/h (0 Bft)
22.01.2014 00:56 3,4 C 2,2 C 95 % 1012,6 hPa 0,0 l/m 0 min 0 min 0,0 UV-I 0 W/m 0,0 km/h (0 Bft)
22.01.2014 00:58 3,4 C 2,2 C 95 % 1012,6 hPa 0,0 l/m 0 min 0 min 0,0 UV-I 0 W/m 0,0 km/h (0 Bft)
22.01.2014 01:00 3,4 C 2,2 C 95 % 1012,7 hPa 0,0 l/m 0 min 0 min 0,0 UV-I 0 W/m 0,0 km/h (0 Bft)
22.01.2014 01:02 3,4 C 2,2 C 95 % 1012,7 hPa 0,0 l/m 0 min 0 min 0,0 UV-I 0 W/m 0,0 km/h (0 Bft)
22.01.2014 01:04 3,4 C 2,2 C 95 % 1012,7 hPa 0,0 l/m 0 min 0 min 0,0 UV-I 0 W/m 0,0 km/h (0 Bft)
22.01.2014 01:06 3,4 C 2,2 C 95 % 1012,7 hPa 0,0 l/m 0 min 0 min 0,0 UV-I 0 W/m 0,0 km/h (0 Bft)
22.01.2014 01:08 3,4 C 2,2 C 95 % 1012,6 hPa 0,0 l/m 0 min 0 min 0,0 UV-I 0 W/m 2,6 km/h (1 Bft)
22.01.2014 01:10 3,4 C 2,2 C 95 % 1012,8 hPa 0,0 l/m 0 min 0 min 0,0 UV-I 0 W/m 5,1 km/h (1 Bft)
22.01.2014 01:12 3,4 C 2,2 C 95 % 1012,6 hPa 0,0 l/m 0 min 0 min 0,0 UV-I 0 W/m 0,0 km/h (0 Bft)
22.01.2014 01:14 3,4 C 2,2 C 95 % 1012,6 hPa 0,0 l/m 0 min 0 min 0,0 UV-I 0 W/m 0,0 km/h (0 Bft)
22.01.2014 01:16 3,4 C 2,2 C 95 % 1012,7 hPa 0,0 l/m 0 min 0 min 0,0 UV-I 0 W/m 2,6 km/h (1 Bft)
22.01.2014 01:18 3,4 C 2,2 C 95 % 1012,7 hPa 0,0 l/m 0 min 0 min 0,0 UV-I 0 W/m 2,6 km/h (1 Bft)
22.01.2014 01:20 3,4 C 2,2 C 95 % 1012,6 hPa 0,0 l/m 0 min 0 min 0,0 UV-I 0 W/m 0,0 km/h (0 Bft)
22.01.2014 01:22 3,4 C 2,2 C 95 % 1012,7 hPa 0,0 l/m 0 min 0 min 0,0 UV-I 0 W/m 0,0 km/h (0 Bft)
22.01.2014 01:24 3,4 C 2,2 C 95 % 1012,6 hPa 0,0 l/m 0 min 0 min 0,0 UV-I 0 W/m 0,0 km/h (0 Bft)
22.01.2014 01:26 3,4 C 2,2 C 95 % 1012,8 hPa 0,0 l/m 0 min 0 min 0,0 UV-I 0 W/m 0,0 km/h (0 Bft)
22.01.2014 01:28 3,4 C 2,2 C 95 % 1012,7 hPa 0,0 l/m 0 min 0 min 0,0 UV-I 0 W/m 0,0 km/h (0 Bft)
22.01.2014 01:30 3,4 C 2,2 C 95 % 1012,6 hPa 0,0 l/m 0 min 0 min 0,0 UV-I 0 W/m 0,0 km/h (0 Bft)
22.01.2014 01:32 3,4 C 2,2 C 95 % 1012,6 hPa 0,0 l/m 0 min 0 min 0,0 UV-I 0 W/m 0,0 km/h (0 Bft)
22.01.2014 01:34 3,4 C 2,2 C 95 % 1012,6 hPa 0,0 l/m 0 min 0 min 0,0 UV-I 0 W/m 0,0 km/h (0 Bft)
22.01.2014 01:36 3,4 C 2,2 C 95 % 1012,6 hPa 0,0 l/m 0 min 0 min 0,0 UV-I 0 W/m 0,0 km/h (0 Bft)
22.01.2014 01:38 3,4 C 2,2 C 95 % 1012,6 hPa 0,0 l/m 0 min 0 min 0,0 UV-I 0 W/m 0,0 km/h (0 Bft)
22.01.2014 01:40 3,4 C 2,2 C 95 % 1012,6 hPa 0,0 l/m 0 min 0 min 0,0 UV-I 0 W/m 0,0 km/h (0 Bft)
22.01.2014 01:42 3,4 C 2,2 C 95 % 1012,6 hPa 0,0 l/m 0 min 0 min 0,0 UV-I 0 W/m 0,0 km/h (0 Bft)
22.01.2014 01:44 3,4 C 2,2 C 95 % 1012,7 hPa 0,0 l/m 0 min 0 min 0,0 UV-I 0 W/m 10,3 km/h (2 Bft)
22.01.2014 01:46 3,4 C 2,2 C 95 % 1012,7 hPa 0,0 l/m 0 min 0 min 0,0 UV-I 0 W/m 10,3 km/h (2 Bft)
22.01.2014 01:48 3,4 C 2,2 C 95 % 1012,5 hPa 0,0 l/m 0 min 0 min 0,0 UV-I 0 W/m 10,3 km/h (2 Bft)
22.01.2014 01:50 3,4 C 2,2 C 95 % 1012,6 hPa 0,0 l/m 0 min 0 min 0,0 UV-I 0 W/m 7,7 km/h (2 Bft)
22.01.2014 01:52 3,4 C 2,2 C 95 % 1012,5 hPa 0,0 l/m 0 min 0 min 0,0 UV-I 0 W/m 2,6 km/h (1 Bft)
22.01.2014 01:54 3,4 C 2,2 C 95 % 1012,5 hPa 0,0 l/m 0 min 0 min 0,0 UV-I 0 W/m 0,0 km/h (0 Bft)
22.01.2014 01:56 3,4 C 2,2 C 95 % 1012,5 hPa 0,0 l/m 0 min 0 min 0,0 UV-I 0 W/m 0,0 km/h (0 Bft)
22.01.2014 01:58 3,4 C 2,2 C 95 % 1012,5 hPa 0,0 l/m 0 min 0 min 0,0 UV-I 0 W/m 0,0 km/h (0 Bft)
22.01.2014 02:00 3,4 C 2,2 C 95 % 1012,7 hPa 0,0 l/m 0 min 0 min 0,0 UV-I 0 W/m 0,0 km/h (0 Bft)
22.01.2014 02:02 3,4 C 2,2 C 95 % 1012,6 hPa 0,0 l/m 0 min 0 min 0,0 UV-I 0 W/m 0,0 km/h (0 Bft)
22.01.2014 02:04 3,3 C 2,2 C 95 % 1012,5 hPa 0,0 l/m 0 min 0 min 0,0 UV-I 0 W/m 0,0 km/h (0 Bft)
22.01.2014 02:06 3,3 C 2,2 C 95 % 1012,5 hPa 0,0 l/m 0 min 0 min 0,0 UV-I 0 W/m 0,0 km/h (0 Bft)
22.01.2014 02:08 3,3 C 2,2 C 95 % 1012,5 hPa 0,0 l/m 0 min 0 min 0,0 UV-I 0 W/m 0,0 km/h (0 Bft)
22.01.2014 02:10 3,3 C 2,2 C 95 % 1012,5 hPa 0,0 l/m 0 min 0 min 0,0 UV-I 0 W/m 0,0 km/h (0 Bft)
22.01.2014 02:12 3,3 C 2,2 C 94 % 1012,5 hPa 0,0 l/m 0 min 0 min 0,0 UV-I 0 W/m 0,0 km/h (0 Bft)
22.01.2014 02:14 3,3 C 2,2 C 94 % 1012,5 hPa 0,0 l/m 0 min 0 min 0,0 UV-I 0 W/m 0,0 km/h (0 Bft)
22.01.2014 02:16 3,3 C 2,2 C 94 % 1012,4 hPa 0,0 l/m 0 min 0 min 0,0 UV-I 0 W/m 0,0 km/h (0 Bft)
22.01.2014 02:18 3,3 C 2,2 C 94 % 1012,5 hPa 0,0 l/m 0 min 0 min 0,0 UV-I 0 W/m 0,0 km/h (0 Bft)
22.01.2014 02:20 3,3 C 2,2 C 94 % 1012,4 hPa 0,0 l/m 0 min 0 min 0,0 UV-I 0 W/m 0,0 km/h (0 Bft)
22.01.2014 02:22 3,3 C 2,2 C 95 % 1012,5 hPa 0,0 l/m 0 min 0 min 0,0 UV-I 0 W/m 0,0 km/h (0 Bft)
22.01.2014 02:24 3,3 C 2,2 C 95 % 1012,5 hPa 0,0 l/m 0 min 0 min 0,0 UV-I 0 W/m 0,0 km/h (0 Bft)
22.01.2014 02:26 3,3 C 2,2 C 94 % 1012,4 hPa 0,0 l/m 0 min 0 min 0,0 UV-I 0 W/m 0,0 km/h (0 Bft)
22.01.2014 02:28 3,3 C 2,2 C 94 % 1012,4 hPa 0,0 l/m 0 min 0 min 0,0 UV-I 0 W/m 0,0 km/h (0 Bft)
22.01.2014 02:30 3,3 C 2,2 C 94 % 1012,4 hPa 0,0 l/m 0 min 0 min 0,0 UV-I 0 W/m 0,0 km/h (0 Bft)
22.01.2014 02:32 3,3 C 2,2 C 94 % 1012,4 hPa 0,0 l/m 0 min 0 min 0,0 UV-I 0 W/m 0,0 km/h (0 Bft)
22.01.2014 02:34 3,3 C 2,2 C 94 % 1012,5 hPa 0,0 l/m 0 min 0 min 0,0 UV-I 0 W/m 0,0 km/h (0 Bft)
22.01.2014 02:36 3,3 C 2,2 C 94 % 1012,4 hPa 0,0 l/m 0 min 0 min 0,0 UV-I 0 W/m 2,6 km/h (1 Bft)
22.01.2014 02:38 3,3 C 2,2 C 94 % 1012,3 hPa 0,0 l/m 0 min 0 min 0,0 UV-I 0 W/m 0,0 km/h (0 Bft)
22.01.2014 02:40 3,3 C 2,2 C 94 % 1012,4 hPa 0,0 l/m 0 min 0 min 0,0 UV-I 0 W/m 0,0 km/h (0 Bft)
22.01.2014 02:42 3,3 C 2,2 C 94 % 1012,5 hPa 0,0 l/m 0 min 0 min 0,0 UV-I 0 W/m 0,0 km/h (0 Bft)
22.01.2014 02:44 3,3 C 2,2 C 94 % 1012,4 hPa 0,0 l/m 0 min 0 min 0,0 UV-I 0 W/m 0,0 km/h (0 Bft)
22.01.2014 02:46 3,3 C 2,2 C 94 % 1012,4 hPa 0,0 l/m 0 min 0 min 0,0 UV-I 0 W/m 0,0 km/h (0 Bft)
22.01.2014 02:48 3,2 C 2,2 C 94 % 1012,4 hPa 0,0 l/m 0 min 0 min 0,0 UV-I 0 W/m 0,0 km/h (0 Bft)
22.01.2014 02:50 3,2 C 2,2 C 94 % 1012,4 hPa 0,0 l/m 0 min 0 min 0,0 UV-I 0 W/m 0,0 km/h (0 Bft)
22.01.2014 02:52 3,2 C 2,2 C 94 % 1012,5 hPa 0,0 l/m 0 min 0 min 0,0 UV-I 0 W/m 2,6 km/h (1 Bft)
22.01.2014 02:54 3,2 C 2,2 C 94 % 1012,5 hPa 0,0 l/m 0 min 0 min 0,0 UV-I 0 W/m 0,0 km/h (0 Bft)
22.01.2014 02:56 3,2 C 2,2 C 94 % 1012,5 hPa 0,0 l/m 0 min 0 min 0,0 UV-I 0 W/m 0,0 km/h (0 Bft)
22.01.2014 02:58 3,2 C 2,2 C 94 % 1012,4 hPa 0,0 l/m 0 min 0 min 0,0 UV-I 0 W/m 0,0 km/h (0 Bft)
22.01.2014 03:00 3,2 C 2,2 C 94 % 1012,4 hPa 0,0 l/m 0 min 0 min 0,0 UV-I 0 W/m 0,0 km/h (0 Bft)
22.01.2014 03:02 3,2 C 2,2 C 94 % 1012,4 hPa 0,0 l/m 0 min 0 min 0,0 UV-I 0 W/m 2,6 km/h (1 Bft)
22.01.2014 03:04 3,2 C 2,2 C 94 % 1012,4 hPa 0,0 l/m 0 min 0 min 0,0 UV-I 0 W/m 0,0 km/h (0 Bft)
22.01.2014 03:06 3,2 C 2,2 C 94 % 1012,4 hPa 0,0 l/m 0 min 0 min 0,0 UV-I 0 W/m 0,0 km/h (0 Bft)
22.01.2014 03:08 3,2 C 2,2 C 94 % 1012,5 hPa 0,0 l/m 0 min 0 min 0,0 UV-I 0 W/m 0,0 km/h (0 Bft)
22.01.2014 03:10 3,2 C 2,2 C 94 % 1012,2 hPa 0,0 l/m 0 min 0 min 0,0 UV-I 0 W/m 0,0 km/h (0 Bft)
22.01.2014 03:12 3,2 C 2,2 C 94 % 1012,3 hPa 0,0 l/m 0 min 0 min 0,0 UV-I 0 W/m 0,0 km/h (0 Bft)
22.01.2014 03:14 3,2 C 2,2 C 94 % 1012,2 hPa 0,0 l/m 0 min 0 min 0,0 UV-I 0 W/m 2,6 km/h (1 Bft)
22.01.2014 03:16 3,2 C 2,2 C 94 % 1012,3 hPa 0,0 l/m 0 min 0 min 0,0 UV-I 0 W/m 0,0 km/h (0 Bft)
22.01.2014 03:18 3,2 C 2,2 C 94 % 1012,2 hPa 0,0 l/m 0 min 0 min 0,0 UV-I 0 W/m 0,0 km/h (0 Bft)
22.01.2014 03:20 3,2 C 2,2 C 94 % 1012,3 hPa 0,0 l/m 0 min 0 min 0,0 UV-I 0 W/m 0,0 km/h (0 Bft)
22.01.2014 03:22 3,2 C 2,2 C 94 % 1012,3 hPa 0,0 l/m 0 min 0 min 0,0 UV-I 0 W/m 2,6 km/h (1 Bft)
22.01.2014 03:24 3,2 C 2,2 C 94 % 1012,3 hPa 0,0 l/m 0 min 0 min 0,0 UV-I 0 W/m 0,0 km/h (0 Bft)
22.01.2014 03:26 3,2 C 2,2 C 94 % 1012,4 hPa 0,0 l/m 0 min 0 min 0,0 UV-I 0 W/m 7,7 km/h (2 Bft)
22.01.2014 03:28 3,2 C 2,2 C 94 % 1012,2 hPa 0,0 l/m 0 min 0 min 0,0 UV-I 0 W/m 2,6 km/h (1 Bft)
22.01.2014 03:30 3,2 C 2,2 C 94 % 1012,2 hPa 0,0 l/m 0 min 0 min 0,0 UV-I 0 W/m 0,0 km/h (0 Bft)
22.01.2014 03:32 3,2 C 2,2 C 94 % 1012,3 hPa 0,0 l/m 0 min 0 min 0,0 UV-I 0 W/m 5,1 km/h (1 Bft)
22.01.2014 03:34 3,1 C 2,2 C 94 % 1012,3 hPa 0,0 l/m 0 min 0 min 0,0 UV-I 0 W/m 0,0 km/h (0 Bft)
22.01.2014 03:36 3,1 C 2,2 C 94 % 1012,2 hPa 0,0 l/m 0 min 0 min 0,0 UV-I 0 W/m 0,0 km/h (0 Bft)
22.01.2014 03:38 3,1 C 2,2 C 94 % 1012,3 hPa 0,0 l/m 0 min 0 min 0,0 UV-I 0 W/m 0,0 km/h (0 Bft)
22.01.2014 03:40 3,1 C 2,2 C 94 % 1012,2 hPa 0,0 l/m 0 min 0 min 0,0 UV-I 0 W/m 0,0 km/h (0 Bft)
22.01.2014 03:42 3,1 C 2,2 C 94 % 1012,1 hPa 0,0 l/m 0 min 0 min 0,0 UV-I 0 W/m 5,1 km/h (1 Bft)
22.01.2014 03:44 3,1 C 2,2 C 94 % 1012,1 hPa 0,0 l/m 0 min 0 min 0,0 UV-I 0 W/m 0,0 km/h (0 Bft)
22.01.2014 03:46 3,1 C 1,7 C 94 % 1012,1 hPa 0,0 l/m 0 min 0 min 0,0 UV-I 0 W/m 0,0 km/h (0 Bft)
22.01.2014 03:48 3,1 C 1,7 C 94 % 1012,1 hPa 0,0 l/m 0 min 0 min 0,0 UV-I 0 W/m 0,0 km/h (0 Bft)
22.01.2014 03:50 3,1 C 1,7 C 94 % 1012,0 hPa 0,0 l/m 0 min 0 min 0,0 UV-I 0 W/m 0,0 km/h (0 Bft)
22.01.2014 03:52 3,0 C 1,7 C 94 % 1012,0 hPa 0,0 l/m 0 min 0 min 0,0 UV-I 0 W/m 0,0 km/h (0 Bft)
22.01.2014 03:54 3,0 C 1,7 C 94 % 1012,0 hPa 0,0 l/m 0 min 0 min 0,0 UV-I 0 W/m 0,0 km/h (0 Bft)
22.01.2014 03:56 3,0 C 1,7 C 94 % 1012,0 hPa 0,0 l/m 0 min 0 min 0,0 UV-I 0 W/m 0,0 km/h (0 Bft)
22.01.2014 03:58 3,0 C 1,7 C 94 % 1012,0 hPa 0,0 l/m 0 min 0 min 0,0 UV-I 0 W/m 0,0 km/h (0 Bft)
22.01.2014 04:00 3,0 C 1,7 C 94 % 1012,1 hPa 0,0 l/m 0 min 0 min 0,0 UV-I 0 W/m 0,0 km/h (0 Bft)
22.01.2014 04:02 3,0 C 1,7 C 94 % 1011,9 hPa 0,0 l/m 0 min 0 min 0,0 UV-I 0 W/m 0,0 km/h (0 Bft)
22.01.2014 04:04 3,0 C 1,7 C 94 % 1011,9 hPa 0,0 l/m 0 min 0 min 0,0 UV-I 0 W/m 0,0 km/h (0 Bft)
22.01.2014 04:06 2,9 C 1,7 C 94 % 1012,0 hPa 0,0 l/m 0 min 0 min 0,0 UV-I 0 W/m 0,0 km/h (0 Bft)
22.01.2014 04:08 2,9 C 1,7 C 94 % 1012,0 hPa 0,0 l/m 0 min 0 min 0,0 UV-I 0 W/m 0,0 km/h (0 Bft)
22.01.2014 04:10 2,9 C 1,7 C 94 % 1012,0 hPa 0,0 l/m 0 min 0 min 0,0 UV-I 0 W/m 0,0 km/h (0 Bft)
22.01.2014 04:12 2,9 C 1,7 C 94 % 1012,0 hPa 0,0 l/m 0 min 0 min 0,0 UV-I 0 W/m 0,0 km/h (0 Bft)
22.01.2014 04:14 2,9 C 1,7 C 94 % 1011,9 hPa 0,0 l/m 0 min 0 min 0,0 UV-I 0 W/m 0,0 km/h (0 Bft)
22.01.2014 04:16 2,9 C 1,7 C 94 % 1012,0 hPa 0,0 l/m 0 min 0 min 0,0 UV-I 0 W/m 0,0 km/h (0 Bft)
22.01.2014 04:18 2,9 C 1,7 C 94 % 1012,0 hPa 0,0 l/m 0 min 0 min 0,0 UV-I 0 W/m 0,0 km/h (0 Bft)
22.01.2014 04:20 2,9 C 1,1 C 94 % 1011,9 hPa 0,0 l/m 0 min 0 min 0,0 UV-I 0 W/m 0,0 km/h (0 Bft)
22.01.2014 04:22 2,9 C 1,1 C 94 % 1011,8 hPa 0,0 l/m 0 min 0 min 0,0 UV-I 0 W/m 0,0 km/h (0 Bft)
22.01.2014 04:24 2,9 C 1,1 C 94 % 1011,8 hPa 0,0 l/m 0 min 0 min 0,0 UV-I 0 W/m 0,0 km/h (0 Bft)
22.01.2014 04:26 2,9 C 1,7 C 94 % 1011,8 hPa 0,0 l/m 0 min 0 min 0,0 UV-I 0 W/m 0,0 km/h (0 Bft)
22.01.2014 04:28 2,8 C 1,7 C 94 % 1012,0 hPa 0,0 l/m 0 min 0 min 0,0 UV-I 0 W/m 0,0 km/h (0 Bft)
22.01.2014 04:30 2,8 C 1,7 C 94 % 1012,0 hPa 0,0 l/m 0 min 0 min 0,0 UV-I 0 W/m 0,0 km/h (0 Bft)
22.01.2014 04:32 2,8 C 1,7 C 94 % 1011,9 hPa 0,0 l/m 0 min 0 min 0,0 UV-I 0 W/m 0,0 km/h (0 Bft)
22.01.2014 04:34 2,8 C 1,7 C 93 % 1011,9 hPa 0,0 l/m 0 min 0 min 0,0 UV-I 0 W/m 0,0 km/h (0 Bft)
22.01.2014 04:36 2,8 C 1,7 C 93 % 1012,0 hPa 0,0 l/m 0 min 0 min 0,0 UV-I 0 W/m 0,0 km/h (0 Bft)
22.01.2014 04:38 2,8 C 1,7 C 93 % 1012,0 hPa 0,0 l/m 0 min 0 min 0,0 UV-I 0 W/m 0,0 km/h (0 Bft)
22.01.2014 04:40 2,8 C 1,7 C 93 % 1012,0 hPa 0,0 l/m 0 min 0 min 0,0 UV-I 0 W/m 0,0 km/h (0 Bft)
22.01.2014 04:42 2,8 C 1,7 C 93 % 1012,0 hPa 0,0 l/m 0 min 0 min 0,0 UV-I 0 W/m 0,0 km/h (0 Bft)
22.01.2014 04:44 2,8 C 1,7 C 93 % 1012,0 hPa 0,0 l/m 0 min 0 min 0,0 UV-I 0 W/m 0,0 km/h (0 Bft)
22.01.2014 04:46 2,8 C 1,7 C 93 % 1012,0 hPa 0,0 l/m 0 min 0 min 0,0 UV-I 0 W/m 0,0 km/h (0 Bft)
22.01.2014 04:48 2,8 C 1,7 C 93 % 1012,0 hPa 0,0 l/m 0 min 0 min 0,0 UV-I 0 W/m 0,0 km/h (0 Bft)
22.01.2014 04:50 2,8 C 1,7 C 93 % 1012,0 hPa 0,0 l/m 0 min 0 min 0,0 UV-I 0 W/m 0,0 km/h (0 Bft)
22.01.2014 04:52 2,8 C 1,7 C 93 % 1012,0 hPa 0,0 l/m 0 min 0 min 0,0 UV-I 0 W/m 0,0 km/h (0 Bft)
22.01.2014 04:54 2,8 C 1,7 C 93 % 1012,0 hPa 0,0 l/m 0 min 0 min 0,0 UV-I 0 W/m 0,0 km/h (0 Bft)
22.01.2014 04:56 2,8 C 1,7 C 93 % 1012,0 hPa 0,0 l/m 0 min 0 min 0,0 UV-I 0 W/m 0,0 km/h (0 Bft)
22.01.2014 04:58 2,7 C 1,7 C 93 % 1012,0 hPa 0,0 l/m 0 min 0 min 0,0 UV-I 0 W/m 0,0 km/h (0 Bft)
22.01.2014 05:00 2,8 C 1,7 C 93 % 1012,0 hPa 0,0 l/m 0 min 0 min 0,0 UV-I 0 W/m 0,0 km/h (0 Bft)
22.01.2014 05:02 2,8 C 1,7 C 93 % 1012,0 hPa 0,0 l/m 0 min 0 min 0,0 UV-I 0 W/m 0,0 km/h (0 Bft)
22.01.2014 05:04 2,7 C 1,7 C 93 % 1011,9 hPa 0,0 l/m 0 min 0 min 0,0 UV-I 0 W/m 0,0 km/h (0 Bft)
22.01.2014 05:06 2,7 C 1,7 C 93 % 1012,0 hPa 0,0 l/m 0 min 0 min 0,0 UV-I 0 W/m 0,0 km/h (0 Bft)
22.01.2014 05:08 2,7 C 1,7 C 93 % 1012,0 hPa 0,0 l/m 0 min 0 min 0,0 UV-I 0 W/m 0,0 km/h (0 Bft)
22.01.2014 05:10 2,7 C 1,7 C 93 % 1012,0 hPa 0,0 l/m 0 min 0 min 0,0 UV-I 0 W/m 0,0 km/h (0 Bft)
22.01.2014 05:12 2,7 C 1,7 C 93 % 1012,1 hPa 0,0 l/m 0 min 0 min 0,0 UV-I 0 W/m 0,0 km/h (0 Bft)
22.01.2014 05:14 2,7 C 1,7 C 94 % 1012,0 hPa 0,0 l/m 0 min 0 min 0,0 UV-I 0 W/m 0,0 km/h (0 Bft)
22.01.2014 05:16 2,7 C 1,7 C 93 % 1012,1 hPa 0,0 l/m 0 min 0 min 0,0 UV-I 0 W/m 0,0 km/h (0 Bft)
22.01.2014 05:18 2,7 C 1,7 C 93 % 1012,1 hPa 0,0 l/m 0 min 0 min 0,0 UV-I 0 W/m 0,0 km/h (0 Bft)
22.01.2014 05:20 2,7 C 1,7 C 94 % 1012,0 hPa 0,0 l/m 0 min 0 min 0,0 UV-I 0 W/m 0,0 km/h (0 Bft)
22.01.2014 05:22 2,7 C 1,7 C 94 % 1012,0 hPa 0,0 l/m 0 min 0 min 0,0 UV-I 0 W/m 0,0 km/h (0 Bft)
22.01.2014 05:24 2,7 C 1,7 C 94 % 1012,0 hPa 0,0 l/m 0 min 0 min 0,0 UV-I 0 W/m 0,0 km/h (0 Bft)
22.01.2014 05:26 2,7 C 1,7 C 94 % 1012,0 hPa 0,0 l/m 0 min 0 min 0,0 UV-I 0 W/m 0,0 km/h (0 Bft)
22.01.2014 05:28 2,7 C 1,7 C 94 % 1011,9 hPa 0,0 l/m 0 min 0 min 0,0 UV-I 0 W/m 0,0 km/h (0 Bft)
22.01.2014 05:30 2,7 C 1,7 C 94 % 1012,0 hPa 0,0 l/m 0 min 0 min 0,0 UV-I 0 W/m 0,0 km/h (0 Bft)
22.01.2014 05:32 2,7 C 1,7 C 94 % 1012,0 hPa 0,0 l/m 0 min 0 min 0,0 UV-I 0 W/m 0,0 km/h (0 Bft)
22.01.2014 05:34 2,7 C 1,7 C 94 % 1012,0 hPa 0,0 l/m 0 min 0 min 0,0 UV-I 0 W/m 0,0 km/h (0 Bft)
22.01.2014 05:36 2,7 C 1,7 C 94 % 1012,0 hPa 0,0 l/m 0 min 0 min 0,0 UV-I 0 W/m 0,0 km/h (0 Bft)
22.01.2014 05:38 2,7 C 1,7 C 94 % 1012,0 hPa 0,0 l/m 0 min 0 min 0,0 UV-I 0 W/m 0,0 km/h (0 Bft)
22.01.2014 05:40 2,7 C 1,7 C 94 % 1012,0 hPa 0,0 l/m 0 min 0 min 0,0 UV-I 0 W/m 0,0 km/h (0 Bft)
22.01.2014 05:42 2,7 C 1,7 C 94 % 1012,0 hPa 0,0 l/m 0 min 0 min 0,0 UV-I 0 W/m 0,0 km/h (0 Bft)
22.01.2014 05:44 2,7 C 1,7 C 94 % 1012,1 hPa 0,0 l/m 0 min 0 min 0,0 UV-I 0 W/m 0,0 km/h (0 Bft)
22.01.2014 05:46 2,7 C 1,7 C 94 % 1012,0 hPa 0,0 l/m 0 min 0 min 0,0 UV-I 0 W/m 0,0 km/h (0 Bft)
22.01.2014 05:48 2,7 C 1,7 C 94 % 1012,0 hPa 0,0 l/m 0 min 0 min 0,0 UV-I 0 W/m 0,0 km/h (0 Bft)
22.01.2014 05:50 2,7 C 1,7 C 94 % 1012,0 hPa 0,0 l/m 0 min 0 min 0,0 UV-I 0 W/m 0,0 km/h (0 Bft)
22.01.2014 05:52 2,7 C 1,7 C 94 % 1011,9 hPa 0,0 l/m 0 min 0 min 0,0 UV-I 0 W/m 0,0 km/h (0 Bft)
22.01.2014 05:54 2,7 C 1,7 C 94 % 1011,8 hPa 0,0 l/m 0 min 0 min 0,0 UV-I 0 W/m 0,0 km/h (0 Bft)
22.01.2014 05:56 2,7 C 1,7 C 94 % 1011,8 hPa 0,0 l/m 0 min 0 min 0,0 UV-I 0 W/m 0,0 km/h (0 Bft)
22.01.2014 05:58 2,7 C 1,7 C 94 % 1011,8 hPa 0,0 l/m 0 min 0 min 0,0 UV-I 0 W/m 0,0 km/h (0 Bft)
22.01.2014 06:00 2,7 C 1,7 C 94 % 1011,8 hPa 0,0 l/m 0 min 0 min 0,0 UV-I 0 W/m 0,0 km/h (0 Bft)
22.01.2014 06:02 2,7 C 1,7 C 94 % 1011,9 hPa 0,0 l/m 0 min 0 min 0,0 UV-I 0 W/m 0,0 km/h (0 Bft)
22.01.2014 06:04 2,7 C 1,7 C 94 % 1011,8 hPa 0,0 l/m 0 min 0 min 0,0 UV-I 0 W/m 0,0 km/h (0 Bft)
22.01.2014 06:06 2,7 C 1,7 C 94 % 1011,9 hPa 0,0 l/m 0 min 0 min 0,0 UV-I 0 W/m 0,0 km/h (0 Bft)
22.01.2014 06:08 2,7 C 1,7 C 94 % 1011,8 hPa 0,0 l/m 0 min 0 min 0,0 UV-I 0 W/m 0,0 km/h (0 Bft)
22.01.2014 06:10 2,7 C 1,7 C 94 % 1011,7 hPa 0,0 l/m 0 min 0 min 0,0 UV-I 0 W/m 0,0 km/h (0 Bft)
22.01.2014 06:12 2,7 C 1,7 C 94 % 1011,8 hPa 0,0 l/m 0 min 0 min 0,0 UV-I 0 W/m 0,0 km/h (0 Bft)
22.01.2014 06:14 2,7 C 1,7 C 94 % 1011,8 hPa 0,0 l/m 0 min 0 min 0,0 UV-I 0 W/m 0,0 km/h (0 Bft)
22.01.2014 06:16 2,7 C 1,7 C 94 % 1011,8 hPa 0,0 l/m 0 min 0 min 0,0 UV-I 0 W/m 0,0 km/h (0 Bft)
22.01.2014 06:18 2,7 C 1,7 C 94 % 1011,9 hPa 0,0 l/m 0 min 0 min 0,0 UV-I 0 W/m 0,0 km/h (0 Bft)
22.01.2014 06:20 2,7 C 1,7 C 94 % 1011,9 hPa 0,0 l/m 0 min 0 min 0,0 UV-I 0 W/m 0,0 km/h (0 Bft)
22.01.2014 06:22 2,7 C 1,7 C 94 % 1011,9 hPa 0,0 l/m 0 min 0 min 0,0 UV-I 0 W/m 0,0 km/h (0 Bft)
22.01.2014 06:24 2,8 C 1,7 C 94 % 1011,9 hPa 0,0 l/m 0 min 0 min 0,0 UV-I 0 W/m 0,0 km/h (0 Bft)
22.01.2014 06:26 2,7 C 1,7 C 94 % 1011,9 hPa 0,0 l/m 0 min 0 min 0,0 UV-I 0 W/m 0,0 km/h (0 Bft)
22.01.2014 06:28 2,7 C 1,7 C 94 % 1011,8 hPa 0,0 l/m 0 min 0 min 0,0 UV-I 0 W/m 0,0 km/h (0 Bft)
22.01.2014 06:30 2,7 C 1,7 C 94 % 1011,9 hPa 0,0 l/m 0 min 0 min 0,0 UV-I 0 W/m 0,0 km/h (0 Bft)
22.01.2014 06:32 2,7 C 1,7 C 94 % 1011,9 hPa 0,0 l/m 0 min 0 min 0,0 UV-I 0 W/m 0,0 km/h (0 Bft)
22.01.2014 06:34 2,7 C 1,7 C 94 % 1011,9 hPa 0,0 l/m 0 min 0 min 0,0 UV-I 0 W/m 0,0 km/h (0 Bft)
22.01.2014 06:36 2,7 C 1,7 C 94 % 1012,0 hPa 0,0 l/m 0 min 0 min 0,0 UV-I 0 W/m 0,0 km/h (0 Bft)
22.01.2014 06:38 2,7 C 1,7 C 94 % 1011,9 hPa 0,0 l/m 0 min 0 min 0,0 UV-I 0 W/m 0,0 km/h (0 Bft)
22.01.2014 06:40 2,7 C 1,7 C 94 % 1011,9 hPa 0,0 l/m 0 min 0 min 0,0 UV-I 0 W/m 0,0 km/h (0 Bft)
22.01.2014 06:42 2,7 C 1,7 C 94 % 1011,9 hPa 0,0 l/m 0 min 0 min 0,0 UV-I 0 W/m 0,0 km/h (0 Bft)
22.01.2014 06:44 2,7 C 1,7 C 94 % 1011,7 hPa 0,0 l/m 0 min 0 min 0,0 UV-I 0 W/m 0,0 km/h (0 Bft)
22.01.2014 06:46 2,7 C 1,7 C 94 % 1011,8 hPa 0,0 l/m 0 min 0 min 0,0 UV-I 0 W/m 0,0 km/h (0 Bft)
22.01.2014 06:48 2,7 C 1,7 C 94 % 1011,6 hPa 0,0 l/m 0 min 0 min 0,0 UV-I 0 W/m 0,0 km/h (0 Bft)
22.01.2014 06:50 2,8 C 1,7 C 94 % 1011,8 hPa 0,0 l/m 0 min 0 min 0,0 UV-I 0 W/m 0,0 km/h (0 Bft)
22.01.2014 06:52 2,8 C 1,7 C 94 % 1011,8 hPa 0,0 l/m 0 min 0 min 0,0 UV-I 0 W/m 0,0 km/h (0 Bft)
22.01.2014 06:54 2,8 C 1,7 C 94 % 1011,8 hPa 0,0 l/m 0 min 0 min 0,0 UV-I 0 W/m 0,0 km/h (0 Bft)
22.01.2014 06:56 2,8 C 1,7 C 94 % 1011,8 hPa 0,0 l/m 0 min 0 min 0,0 UV-I 0 W/m 0,0 km/h (0 Bft)
22.01.2014 06:58 2,8 C 1,7 C 94 % 1011,7 hPa 0,0 l/m 0 min 0 min 0,0 UV-I 0 W/m 0,0 km/h (0 Bft)
22.01.2014 07:00 2,8 C 2,2 C 94 % 1011,8 hPa 0,0 l/m 0 min 0 min 0,0 UV-I 0 W/m 0,0 km/h (0 Bft)
22.01.2014 07:02 2,8 C 2,2 C 94 % 1011,6 hPa 0,0 l/m 0 min 0 min 0,0 UV-I 0 W/m 0,0 km/h (0 Bft)
22.01.2014 07:04 2,8 C 2,2 C 94 % 1011,7 hPa 0,0 l/m 0 min 0 min 0,0 UV-I 0 W/m 0,0 km/h (0 Bft)
22.01.2014 07:06 2,8 C 2,2 C 94 % 1011,7 hPa 0,0 l/m 0 min 0 min 0,0 UV-I 0 W/m 0,0 km/h (0 Bft)
22.01.2014 07:08 2,8 C 2,2 C 94 % 1011,7 hPa 0,0 l/m 0 min 0 min 0,0 UV-I 0 W/m 0,0 km/h (0 Bft)
22.01.2014 07:10 2,8 C 2,2 C 94 % 1011,7 hPa 0,0 l/m 0 min 0 min 0,0 UV-I 0 W/m 0,0 km/h (0 Bft)
22.01.2014 07:12 2,8 C 2,2 C 94 % 1011,7 hPa 0,0 l/m 0 min 0 min 0,0 UV-I 0 W/m 0,0 km/h (0 Bft)
22.01.2014 07:14 2,8 C 2,2 C 94 % 1011,7 hPa 0,0 l/m 0 min 0 min 0,0 UV-I 0 W/m 0,0 km/h (0 Bft)
22.01.2014 07:16 2,8 C 2,2 C 94 % 1011,7 hPa 0,0 l/m 0 min 0 min 0,0 UV-I 0 W/m 0,0 km/h (0 Bft)
22.01.2014 07:18 2,8 C 2,2 C 94 % 1011,6 hPa 0,0 l/m 0 min 0 min 0,0 UV-I 0 W/m 0,0 km/h (0 Bft)
22.01.2014 07:20 2,8 C 2,2 C 94 % 1011,6 hPa 0,0 l/m 0 min 0 min 0,0 UV-I 0 W/m 0,0 km/h (0 Bft)
22.01.2014 07:22 2,8 C 2,2 C 94 % 1011,6 hPa 0,0 l/m 0 min 0 min 0,0 UV-I 0 W/m 0,0 km/h (0 Bft)
22.01.2014 07:24 2,8 C 2,2 C 94 % 1011,6 hPa 0,0 l/m 0 min 0 min 0,0 UV-I 0 W/m 0,0 km/h (0 Bft)
22.01.2014 07:26 2,9 C 2,2 C 94 % 1011,5 hPa 0,0 l/m 0 min 0 min 0,0 UV-I 0 W/m 0,0 km/h (0 Bft)
22.01.2014 07:28 2,9 C 2,2 C 94 % 1011,5 hPa 0,0 l/m 0 min 0 min 0,0 UV-I 0 W/m 0,0 km/h (0 Bft)
22.01.2014 07:30 2,9 C 2,2 C 94 % 1011,6 hPa 0,0 l/m 0 min 0 min 0,0 UV-I 0 W/m 0,0 km/h (0 Bft)
22.01.2014 07:32 2,9 C 2,2 C 94 % 1011,5 hPa 0,0 l/m 0 min 0 min 0,0 UV-I 0 W/m 0,0 km/h (0 Bft)
22.01.2014 07:34 2,9 C 2,2 C 94 % 1011,5 hPa 0,0 l/m 0 min 0 min 0,0 UV-I 0 W/m 0,0 km/h (0 Bft)
22.01.2014 07:36 2,9 C 2,2 C 94 % 1011,5 hPa 0,0 l/m 0 min 0 min 0,0 UV-I 0 W/m 0,0 km/h (0 Bft)
22.01.2014 07:38 2,9 C 2,2 C 94 % 1011,6 hPa 0,0 l/m 0 min 0 min 0,0 UV-I 0 W/m 0,0 km/h (0 Bft)
22.01.2014 07:40 2,9 C 2,2 C 94 % 1011,6 hPa 0,0 l/m 0 min 0 min 0,0 UV-I 0 W/m 0,0 km/h (0 Bft)
22.01.2014 07:42 2,9 C 2,2 C 94 % 1011,6 hPa 0,0 l/m 0 min 0 min 0,0 UV-I 0 W/m 0,0 km/h (0 Bft)
22.01.2014 07:44 2,9 C 2,2 C 94 % 1011,6 hPa 0,0 l/m 0 min 0 min 0,0 UV-I 0 W/m 0,0 km/h (0 Bft)
22.01.2014 07:46 2,9 C 2,2 C 94 % 1011,5 hPa 0,0 l/m 0 min 0 min 0,0 UV-I 0 W/m 0,0 km/h (0 Bft)
22.01.2014 07:48 2,9 C 2,2 C 94 % 1011,6 hPa 0,0 l/m 0 min 0 min 0,0 UV-I 0 W/m 0,0 km/h (0 Bft)
22.01.2014 07:50 2,9 C 2,2 C 94 % 1011,6 hPa 0,0 l/m 0 min 0 min 0,0 UV-I 0 W/m 0,0 km/h (0 Bft)
22.01.2014 07:52 2,9 C 2,2 C 94 % 1011,5 hPa 0,0 l/m 0 min 0 min 0,0 UV-I 0 W/m 0,0 km/h (0 Bft)
22.01.2014 07:54 2,9 C 2,2 C 94 % 1011,6 hPa 0,0 l/m 0 min 0 min 0,0 UV-I 0 W/m 0,0 km/h (0 Bft)
22.01.2014 07:56 2,9 C 2,2 C 94 % 1011,5 hPa 0,0 l/m 0 min 0 min 0,0 UV-I 0 W/m 0,0 km/h (0 Bft)
22.01.2014 07:58 2,9 C 2,2 C 95 % 1011,5 hPa 0,0 l/m 0 min 0 min 0,0 UV-I 0 W/m 0,0 km/h (0 Bft)
22.01.2014 08:00 2,9 C 2,2 C 95 % 1011,4 hPa 0,0 l/m 0 min 0 min 0,0 UV-I 0 W/m 0,0 km/h (0 Bft)
22.01.2014 08:02 2,9 C 2,2 C 95 % 1011,4 hPa 0,0 l/m 0 min 0 min 0,0 UV-I 0 W/m 0,0 km/h (0 Bft)
22.01.2014 08:04 2,9 C 2,2 C 95 % 1011,5 hPa 0,0 l/m 0 min 0 min 0,0 UV-I 0 W/m 0,0 km/h (0 Bft)
22.01.2014 08:06 2,9 C 2,2 C 95 % 1011,5 hPa 0,0 l/m 0 min 0 min 0,0 UV-I 0 W/m 0,0 km/h (0 Bft)
22.01.2014 08:08 2,9 C 2,2 C 95 % 1011,5 hPa 0,0 l/m 0 min 0 min 0,0 UV-I 0 W/m 0,0 km/h (0 Bft)
22.01.2014 08:10 2,9 C 2,2 C 94 % 1011,5 hPa 0,0 l/m 0 min 0 min 0,0 UV-I 0 W/m 0,0 km/h (0 Bft)
22.01.2014 08:12 2,9 C 2,2 C 95 % 1011,6 hPa 0,0 l/m 0 min 0 min 0,0 UV-I 0 W/m 0,0 km/h (0 Bft)
22.01.2014 08:14 2,9 C 2,2 C 95 % 1011,6 hPa 0,0 l/m 0 min 0 min 0,0 UV-I 0 W/m 0,0 km/h (0 Bft)
22.01.2014 08:16 2,9 C 2,2 C 95 % 1011,6 hPa 0,0 l/m 0 min 0 min 0,0 UV-I 0 W/m 0,0 km/h (0 Bft)
22.01.2014 08:18 2,9 C 2,2 C 95 % 1011,6 hPa 0,0 l/m 0 min 0 min 0,0 UV-I 0 W/m 0,0 km/h (0 Bft)
22.01.2014 08:20 2,9 C 2,2 C 95 % 1011,6 hPa 0,0 l/m 0 min 0 min 0,0 UV-I 0 W/m 0,0 km/h (0 Bft)
22.01.2014 08:22 2,9 C 2,2 C 95 % 1011,6 hPa 0,0 l/m 0 min 0 min 0,0 UV-I 0 W/m 0,0 km/h (0 Bft)
22.01.2014 08:24 2,9 C 2,2 C 95 % 1011,6 hPa 0,0 l/m 0 min 0 min 0,0 UV-I 0 W/m 2,6 km/h (1 Bft)
22.01.2014 08:26 2,9 C 2,2 C 95 % 1011,6 hPa 0,0 l/m 0 min 0 min 0,0 UV-I 0 W/m 0,0 km/h (0 Bft)
22.01.2014 08:28 2,9 C 2,2 C 95 % 1011,7 hPa 0,0 l/m 0 min 0 min 0,0 UV-I 0 W/m 0,0 km/h (0 Bft)
22.01.2014 08:30 3,0 C 2,2 C 95 % 1011,8 hPa 0,0 l/m 0 min 0 min 0,0 UV-I 0 W/m 2,6 km/h (1 Bft)
22.01.2014 08:32 3,0 C 2,2 C 95 % 1011,7 hPa 0,0 l/m 0 min 0 min 0,0 UV-I 0 W/m 5,1 km/h (1 Bft)
22.01.2014 08:34 3,0 C 2,2 C 95 % 1011,8 hPa 0,0 l/m 0 min 0 min 0,0 UV-I 5 W/m 0,0 km/h (0 Bft)
22.01.2014 08:36 3,0 C 2,2 C 95 % 1011,8 hPa 0,0 l/m 0 min 0 min 0,0 UV-I 5 W/m 7,7 km/h (2 Bft)
22.01.2014 08:38 3,0 C 2,2 C 95 % 1011,8 hPa 0,0 l/m 0 min 0 min 0,0 UV-I 7 W/m 0,0 km/h (0 Bft)
22.01.2014 08:40 3,0 C 2,2 C 95 % 1011,8 hPa 0,0 l/m 0 min 0 min 0,0 UV-I 7 W/m 5,1 km/h (1 Bft)
22.01.2014 08:42 3,0 C 2,2 C 95 % 1011,8 hPa 0,0 l/m 0 min 0 min 0,0 UV-I 9 W/m 2,6 km/h (1 Bft)
22.01.2014 08:44 3,0 C 2,2 C 95 % 1011,8 hPa 0,0 l/m 0 min 0 min 0,0 UV-I 9 W/m 7,7 km/h (2 Bft)
22.01.2014 08:46 3,0 C 2,2 C 95 % 1011,9 hPa 0,0 l/m 0 min 0 min 0,0 UV-I 11 W/m 5,1 km/h (1 Bft)
22.01.2014 08:48 3,0 C 2,2 C 95 % 1011,8 hPa 0,0 l/m 0 min 0 min 0,0 UV-I 11 W/m 2,6 km/h (1 Bft)
22.01.2014 08:50 3,0 C 2,2 C 95 % 1011,8 hPa 0,0 l/m 0 min 0 min 0,0 UV-I 12 W/m 5,1 km/h (1 Bft)
22.01.2014 08:52 3,1 C 2,2 C 95 % 1011,8 hPa 0,0 l/m 0 min 0 min 0,0 UV-I 11 W/m 10,3 km/h (2 Bft)
22.01.2014 08:54 3,0 C 2,2 C 95 % 1011,9 hPa 0,0 l/m 0 min 0 min 0,0 UV-I 11 W/m 5,1 km/h (1 Bft)
22.01.2014 08:56 3,1 C 2,2 C 95 % 1011,9 hPa 0,0 l/m 0 min 0 min 0,0 UV-I 11 W/m 0,0 km/h (0 Bft)
22.01.2014 08:58 3,1 C 2,2 C 95 % 1012,0 hPa 0,0 l/m 0 min 0 min 0,0 UV-I 12 W/m 0,0 km/h (0 Bft)
22.01.2014 09:00 3,1 C 2,2 C 95 % 1011,9 hPa 0,0 l/m 0 min 0 min 0,0 UV-I 12 W/m 12,9 km/h (3 Bft)
22.01.2014 09:02 3,1 C 2,2 C 95 % 1011,9 hPa 0,0 l/m 0 min 0 min 0,0 UV-I 14 W/m 7,7 km/h (2 Bft)
22.01.2014 09:04 3,1 C 2,2 C 95 % 1011,9 hPa 0,0 l/m 0 min 0 min 0,0 UV-I 23 W/m 5,1 km/h (1 Bft)
22.01.2014 09:06 3,1 C 2,2 C 95 % 1011,9 hPa 0,0 l/m 0 min 0 min 0,0 UV-I 19 W/m 5,1 km/h (1 Bft)
22.01.2014 09:08 3,1 C 2,2 C 95 % 1011,9 hPa 0,0 l/m 0 min 0 min 0,0 UV-I 21 W/m 5,1 km/h (1 Bft)
22.01.2014 09:10 3,1 C 2,2 C 95 % 1011,9 hPa 0,0 l/m 0 min 0 min 0,0 UV-I 19 W/m 5,1 km/h (1 Bft)
22.01.2014 09:12 3,1 C 2,2 C 94 % 1011,9 hPa 0,0 l/m 0 min 0 min 0,0 UV-I 21 W/m 0,0 km/h (0 Bft)
22.01.2014 09:14 3,1 C 2,2 C 94 % 1011,9 hPa 0,0 l/m 0 min 0 min 0,0 UV-I 19 W/m 5,1 km/h (1 Bft)
22.01.2014 09:16 3,1 C 2,2 C 94 % 1011,9 hPa 0,0 l/m 0 min 0 min 0,0 UV-I 18 W/m 7,7 km/h (2 Bft)
22.01.2014 09:18 3,1 C 2,2 C 94 % 1011,9 hPa 0,0 l/m 0 min 0 min 0,0 UV-I 21 W/m 7,7 km/h (2 Bft)
22.01.2014 09:20 3,1 C 2,2 C 94 % 1011,9 hPa 0,0 l/m 0 min 0 min 0,0 UV-I 23 W/m 5,1 km/h (1 Bft)
22.01.2014 09:22 3,1 C 2,2 C 94 % 1011,9 hPa 0,0 l/m 0 min 0 min 0,0 UV-I 25 W/m 7,7 km/h (2 Bft)
22.01.2014 09:24 3,1 C 2,2 C 94 % 1012,0 hPa 0,0 l/m 0 min 0 min 0,0 UV-I 28 W/m 10,3 km/h (2 Bft)
22.01.2014 09:26 3,1 C 2,2 C 94 % 1012,0 hPa 0,0 l/m 0 min 0 min 0,0 UV-I 25 W/m 10,3 km/h (2 Bft)
22.01.2014 09:28 3,1 C 2,2 C 94 % 1012,0 hPa 0,0 l/m 0 min 0 min 0,0 UV-I 26 W/m 12,9 km/h (3 Bft)
22.01.2014 09:30 3,1 C 2,2 C 94 % 1012,1 hPa 0,0 l/m 0 min 0 min 0,0 UV-I 26 W/m 10,3 km/h (2 Bft)
22.01.2014 09:32 3,1 C 2,2 C 94 % 1012,0 hPa 0,0 l/m 0 min 0 min 0,0 UV-I 33 W/m 15,4 km/h (3 Bft)
22.01.2014 09:34 3,1 C 2,2 C 94 % 1012,0 hPa 0,0 l/m 0 min 0 min 0,0 UV-I 35 W/m 10,3 km/h (2 Bft)
22.01.2014 09:36 3,1 C 2,2 C 94 % 1012,0 hPa 0,0 l/m 0 min 0 min 0,0 UV-I 26 W/m 10,3 km/h (2 Bft)
22.01.2014 09:38 3,1 C 2,2 C 94 % 1012,1 hPa 0,0 l/m 0 min 0 min 0,0 UV-I 32 W/m 10,3 km/h (2 Bft)
22.01.2014 09:40 3,1 C 2,2 C 94 % 1012,1 hPa 0,0 l/m 0 min 0 min 0,0 UV-I 33 W/m 0,0 km/h (0 Bft)
22.01.2014 09:42 3,1 C 2,2 C 94 % 1012,1 hPa 0,0 l/m 0 min 0 min 0,0 UV-I 30 W/m 7,7 km/h (2 Bft)
22.01.2014 09:44 3,1 C 2,2 C 94 % 1012,1 hPa 0,0 l/m 0 min 0 min 0,0 UV-I 33 W/m 5,1 km/h (1 Bft)
22.01.2014 09:46 3,1 C 2,8 C 94 % 1012,1 hPa 0,0 l/m 0 min 0 min 0,0 UV-I 40 W/m 7,7 km/h (2 Bft)
22.01.2014 09:48 3,1 C 2,8 C 94 % 1012,1 hPa 0,0 l/m 0 min 0 min 0,0 UV-I 35 W/m 7,7 km/h (2 Bft)
22.01.2014 09:50 3,1 C 2,8 C 94 % 1012,1 hPa 0,0 l/m 0 min 0 min 0,0 UV-I 35 W/m 7,7 km/h (2 Bft)
22.01.2014 09:52 3,1 C 2,8 C 94 % 1012,1 hPa 0,0 l/m 0 min 0 min 0,0 UV-I 39 W/m 12,9 km/h (3 Bft)
22.01.2014 09:54 3,2 C 2,8 C 94 % 1012,1 hPa 0,0 l/m 0 min 0 min 0,0 UV-I 42 W/m 12,9 km/h (3 Bft)
22.01.2014 09:56 3,2 C 2,8 C 94 % 1012,1 hPa 0,0 l/m 0 min 0 min 0,0 UV-I 51 W/m 28,3 km/h (4 Bft)
22.01.2014 09:58 3,2 C 2,8 C 94 % 1012,1 hPa 0,0 l/m 0 min 0 min 0,0 UV-I 39 W/m 33,5 km/h (5 Bft)
22.01.2014 10:00 3,2 C 2,8 C 93 % 1012,1 hPa 0,0 l/m 0 min 0 min 0,0 UV-I 44 W/m 12,9 km/h (3 Bft)
22.01.2014 10:02 3,2 C 2,8 C 93 % 1012,1 hPa 0,0 l/m 0 min 0 min 0,0 UV-I 44 W/m 12,9 km/h (3 Bft)
22.01.2014 10:04 3,2 C 2,8 C 93 % 1012,1 hPa 0,0 l/m 0 min 0 min 0,0 UV-I 46 W/m 10,3 km/h (2 Bft)
22.01.2014 10:06 3,2 C 2,8 C 93 % 1012,1 hPa 0,0 l/m 0 min 0 min 0,0 UV-I 49 W/m 10,3 km/h (2 Bft)
22.01.2014 10:08 3,2 C 2,8 C 93 % 1012,1 hPa 0,0 l/m 0 min 0 min 0,0 UV-I 53 W/m 23,2 km/h (4 Bft)
22.01.2014 10:10 3,2 C 2,8 C 93 % 1012,0 hPa 0,0 l/m 0 min 0 min 0,0 UV-I 49 W/m 15,4 km/h (3 Bft)
22.01.2014 10:12 3,2 C 2,8 C 93 % 1012,1 hPa 0,0 l/m 0 min 0 min 0,0 UV-I 51 W/m 12,9 km/h (3 Bft)
22.01.2014 10:14 3,2 C 2,8 C 93 % 1012,1 hPa 0,0 l/m 0 min 0 min 0,0 UV-I 51 W/m 23,2 km/h (4 Bft)
22.01.2014 10:16 3,3 C 2,8 C 93 % 1012,0 hPa 0,0 l/m 0 min 0 min 0,0 UV-I 53 W/m 18,0 km/h (3 Bft)
22.01.2014 10:18 3,3 C 2,8 C 93 % 1012,0 hPa 0,0 l/m 0 min 0 min 0,0 UV-I 54 W/m 15,4 km/h (3 Bft)
22.01.2014 10:20 3,3 C 2,8 C 93 % 1012,0 hPa 0,0 l/m 0 min 0 min 0,0 UV-I 67 W/m 7,7 km/h (2 Bft)
22.01.2014 10:22 3,3 C 2,8 C 93 % 1012,0 hPa 0,0 l/m 0 min 0 min 0,0 UV-I 74 W/m 12,9 km/h (3 Bft)
22.01.2014 10:24 3,3 C 2,8 C 93 % 1012,0 hPa 0,0 l/m 0 min 0 min 0,0 UV-I 65 W/m 7,7 km/h (2 Bft)
22.01.2014 10:26 3,4 C 3,3 C 93 % 1012,0 hPa 0,0 l/m 0 min 0 min 0,0 UV-I 74 W/m 10,3 km/h (2 Bft)
22.01.2014 10:28 3,4 C 3,3 C 93 % 1012,0 hPa 0,0 l/m 0 min 0 min 0,0 UV-I 79 W/m 7,7 km/h (2 Bft)
22.01.2014 10:30 3,4 C 3,3 C 93 % 1012,0 hPa 0,0 l/m 0 min 0 min 0,0 UV-I 86 W/m 18,0 km/h (3 Bft)
22.01.2014 10:32 3,4 C 3,3 C 93 % 1012,1 hPa 0,0 l/m 0 min 0 min 0,0 UV-I 83 W/m 12,9 km/h (3 Bft)
22.01.2014 10:34 3,5 C 3,3 C 93 % 1012,1 hPa 0,0 l/m 0 min 0 min 0,0 UV-I 67 W/m 18,0 km/h (3 Bft)
22.01.2014 10:36 3,6 C 3,3 C 93 % 1012,0 hPa 0,0 l/m 0 min 0 min 0,0 UV-I 83 W/m 12,9 km/h (3 Bft)
22.01.2014 10:38 3,7 C 3,3 C 93 % 1012,1 hPa 0,0 l/m 0 min 0 min 0,0 UV-I 81 W/m 12,9 km/h (3 Bft)
22.01.2014 10:40 3,7 C 3,3 C 93 % 1012,1 hPa 0,0 l/m 0 min 0 min 0,0 UV-I 83 W/m 18,0 km/h (3 Bft)
22.01.2014 10:42 3,7 C 3,3 C 93 % 1012,0 hPa 0,0 l/m 0 min 0 min 0,0 UV-I 83 W/m 20,6 km/h (4 Bft)
22.01.2014 10:44 3,8 C 3,3 C 92 % 1012,0 hPa 0,0 l/m 0 min 0 min 0,0 UV-I 84 W/m 18,0 km/h (3 Bft)
22.01.2014 10:46 3,8 C 3,3 C 92 % 1012,0 hPa 0,0 l/m 0 min 0 min 0,0 UV-I 84 W/m 12,9 km/h (3 Bft)
22.01.2014 10:48 3,9 C 3,9 C 92 % 1012,0 hPa 0,0 l/m 0 min 0 min 0,0 UV-I 88 W/m 10,3 km/h (2 Bft)
22.01.2014 10:50 3,9 C 3,9 C 92 % 1012,1 hPa 0,0 l/m 0 min 0 min 0,0 UV-I 95 W/m 12,9 km/h (3 Bft)
22.01.2014 10:52 3,9 C 3,9 C 92 % 1012,1 hPa 0,0 l/m 0 min 0 min 0,0 UV-I 97 W/m 12,9 km/h (3 Bft)
22.01.2014 10:54 3,9 C 3,9 C 92 % 1012,1 hPa 0,0 l/m 0 min 0 min 0,0 UV-I 98 W/m 10,3 km/h (2 Bft)
22.01.2014 10:56 4,0 C 3,9 C 91 % 1012,1 hPa 0,0 l/m 0 min 0 min 0,0 UV-I 104 W/m 12,9 km/h (3 Bft)
22.01.2014 10:58 4,0 C 3,9 C 91 % 1012,2 hPa 0,0 l/m 0 min 0 min 0,0 UV-I 102 W/m 18,0 km/h (3 Bft)
22.01.2014 11:00 4,0 C 3,9 C 91 % 1012,1 hPa 0,0 l/m 0 min 0 min 0,0 UV-I 97 W/m 12,9 km/h (3 Bft)
22.01.2014 11:02 4,0 C 3,9 C 91 % 1012,2 hPa 0,0 l/m 0 min 0 min 0,0 UV-I 95 W/m 7,7 km/h (2 Bft)
22.01.2014 11:04 4,1 C 3,9 C 91 % 1012,2 hPa 0,0 l/m 0 min 0 min 0,0 UV-I 93 W/m 5,1 km/h (1 Bft)
22.01.2014 11:06 4,1 C 3,9 C 91 % 1012,2 hPa 0,0 l/m 0 min 0 min 0,0 UV-I 98 W/m 7,7 km/h (2 Bft)
22.01.2014 11:08 4,2 C 3,9 C 91 % 1012,2 hPa 0,0 l/m 0 min 0 min 0,0 UV-I 105 W/m 20,6 km/h (4 Bft)
22.01.2014 11:10 4,1 C 3,9 C 90 % 1012,2 hPa 0,0 l/m 0 min 0 min 0,0 UV-I 104 W/m 23,2 km/h (4 Bft)
22.01.2014 11:12 4,1 C 3,9 C 90 % 1012,2 hPa 0,0 l/m 0 min 0 min 0,0 UV-I 100 W/m 18,0 km/h (3 Bft)
22.01.2014 11:14 4,1 C 3,9 C 90 % 1012,2 hPa 0,0 l/m 0 min 0 min 0,0 UV-I 100 W/m 15,4 km/h (3 Bft)
22.01.2014 11:16 4,1 C 3,9 C 90 % 1012,1 hPa 0,0 l/m 0 min 0 min 0,0 UV-I 114 W/m 20,6 km/h (4 Bft)
22.01.2014 11:18 4,1 C 3,9 C 90 % 1012,1 hPa 0,0 l/m 0 min 0 min 0,0 UV-I 109 W/m 10,3 km/h (2 Bft)
22.01.2014 11:20 4,1 C 3,9 C 90 % 1012,2 hPa 0,0 l/m 0 min 0 min 0,0 UV-I 123 W/m 15,4 km/h (3 Bft)
22.01.2014 11:22 4,1 C 3,9 C 90 % 1012,1 hPa 0,0 l/m 0 min 0 min 0,0 UV-I 116 W/m 15,4 km/h (3 Bft)
22.01.2014 11:24 4,2 C 3,9 C 90 % 1012,2 hPa 0,0 l/m 0 min 0 min 0,0 UV-I 114 W/m 20,6 km/h (4 Bft)
22.01.2014 11:26 4,2 C 3,9 C 90 % 1012,2 hPa 0,0 l/m 0 min 0 min 0,0 UV-I 120 W/m 10,3 km/h (2 Bft)
22.01.2014 11:28 4,2 C 3,9 C 90 % 1012,2 hPa 0,0 l/m 0 min 0 min 0,0 UV-I 132 W/m 10,3 km/h (2 Bft)
22.01.2014 11:30 4,2 C 3,9 C 89 % 1012,2 hPa 0,0 l/m 0 min 0 min 0,0 UV-I 116 W/m 12,9 km/h (3 Bft)
22.01.2014 11:32 4,2 C 3,9 C 89 % 1012,1 hPa 0,0 l/m 0 min 0 min 0,0 UV-I 121 W/m 2,6 km/h (1 Bft)
22.01.2014 11:34 4,2 C 4,4 C 89 % 1012,1 hPa 0,0 l/m 0 min 0 min 0,0 UV-I 135 W/m 10,3 km/h (2 Bft)
22.01.2014 11:36 4,3 C 4,4 C 89 % 1012,1 hPa 0,0 l/m 0 min 0 min 0,0 UV-I 121 W/m 18,0 km/h (3 Bft)
22.01.2014 11:38 4,3 C 4,4 C 89 % 1012,1 hPa 0,0 l/m 0 min 0 min 0,0 UV-I 121 W/m 5,1 km/h (1 Bft)
22.01.2014 11:40 4,3 C 4,4 C 89 % 1012,1 hPa 0,0 l/m 0 min 0 min 0,0 UV-I 127 W/m 12,9 km/h (3 Bft)
22.01.2014 11:42 4,3 C 4,4 C 89 % 1012,0 hPa 0,0 l/m 0 min 0 min 0,0 UV-I 127 W/m 10,3 km/h (2 Bft)
22.01.2014 11:44 4,4 C 4,4 C 89 % 1012,0 hPa 0,0 l/m 0 min 0 min 0,0 UV-I 144 W/m 10,3 km/h (2 Bft)
22.01.2014 11:46 4,4 C 4,4 C 89 % 1012,0 hPa 0,0 l/m 0 min 0 min 0,0 UV-I 144 W/m 10,3 km/h (2 Bft)
22.01.2014 11:48 4,5 C 4,4 C 89 % 1012,0 hPa 0,0 l/m 0 min 0 min 0,0 UV-I 169 W/m 7,7 km/h (2 Bft)
22.01.2014 11:50 4,6 C 4,4 C 89 % 1012,0 hPa 0,0 l/m 2 min 0 min 0,0 UV-I 183 W/m 15,4 km/h (3 Bft)
22.01.2014 11:52 4,7 C 5,0 C 89 % 1011,9 hPa 0,0 l/m 2 min 0 min 0,0 UV-I 320 W/m 10,3 km/h (2 Bft)
22.01.2014 11:54 4,8 C 5,0 C 89 % 1011,9 hPa 0,0 l/m 2 min 0 min 0,0 UV-I 241 W/m 10,3 km/h (2 Bft)
22.01.2014 11:56 4,9 C 5,0 C 88 % 1011,9 hPa 0,0 l/m 2 min 0 min 0,0 UV-I 243 W/m 12,9 km/h (3 Bft)
22.01.2014 11:58 5,1 C 5,0 C 88 % 1012,0 hPa 0,0 l/m 2 min 0 min 0,0 UV-I 236 W/m 15,4 km/h (3 Bft)
22.01.2014 12:00 5,1 C 5,0 C 88 % 1012,0 hPa 0,0 l/m 2 min 0 min 0,0 UV-I 318 W/m 12,9 km/h (3 Bft)
22.01.2014 12:02 5,2 C 5,0 C 87 % 1012,0 hPa 0,0 l/m 2 min 0 min 0,0 UV-I 308 W/m 12,9 km/h (3 Bft)
22.01.2014 12:04 5,3 C 5,0 C 87 % 1011,9 hPa 0,0 l/m 0 min 0 min 0,0 UV-I 169 W/m 12,9 km/h (3 Bft)
22.01.2014 12:06 5,3 C 4,4 C 86 % 1011,8 hPa 0,0 l/m 2 min 0 min 0,0 UV-I 311 W/m 12,9 km/h (3 Bft)
22.01.2014 12:08 5,4 C 4,4 C 86 % 1011,7 hPa 0,0 l/m 2 min 0 min 0,0 UV-I 320 W/m 12,9 km/h (3 Bft)
22.01.2014 12:10 5,4 C 4,4 C 86 % 1011,7 hPa 0,0 l/m 2 min 0 min 0,0 UV-I 309 W/m 10,3 km/h (2 Bft)
22.01.2014 12:12 5,6 C 5,0 C 86 % 1011,7 hPa 0,0 l/m 2 min 0 min 0,0 UV-I 294 W/m 12,9 km/h (3 Bft)
22.01.2014 12:14 5,7 C 4,4 C 85 % 1011,7 hPa 0,0 l/m 2 min 0 min 0,0 UV-I 311 W/m 10,3 km/h (2 Bft)
22.01.2014 12:16 5,5 C 4,4 C 84 % 1011,6 hPa 0,0 l/m 2 min 0 min 0,0 UV-I 304 W/m 7,7 km/h (2 Bft)
22.01.2014 12:18 5,7 C 4,4 C 84 % 1011,6 hPa 0,0 l/m 2 min 0 min 0,0 UV-I 308 W/m 10,3 km/h (2 Bft)
22.01.2014 12:20 5,8 C 4,4 C 83 % 1011,6 hPa 0,0 l/m 2 min 0 min 0,0 UV-I 306 W/m 12,9 km/h (3 Bft)
22.01.2014 12:22 5,9 C 4,4 C 82 % 1011,6 hPa 0,0 l/m 2 min 0 min 0,0 UV-I 301 W/m 15,4 km/h (3 Bft)
22.01.2014 12:24 6,0 C 4,4 C 82 % 1011,5 hPa 0,0 l/m 2 min 0 min 0,0 UV-I 297 W/m 23,2 km/h (4 Bft)
22.01.2014 12:26 5,9 C 4,4 C 81 % 1011,5 hPa 0,0 l/m 2 min 0 min 0,0 UV-I 288 W/m 15,4 km/h (3 Bft)
22.01.2014 12:28 5,9 C 4,4 C 80 % 1011,5 hPa 0,0 l/m 2 min 0 min 0,0 UV-I 288 W/m 25,7 km/h (4 Bft)
22.01.2014 12:30 5,9 C 4,4 C 80 % 1011,5 hPa 0,0 l/m 2 min 0 min 0,0 UV-I 294 W/m 10,3 km/h (2 Bft)
22.01.2014 12:32 6,0 C 4,4 C 80 % 1011,5 hPa 0,0 l/m 2 min 0 min 0,0 UV-I 285 W/m 18,0 km/h (3 Bft)
22.01.2014 12:34 5,9 C 4,4 C 80 % 1011,5 hPa 0,0 l/m 2 min 0 min 0,0 UV-I 287 W/m 10,3 km/h (2 Bft)
22.01.2014 12:36 5,9 C 4,4 C 79 % 1011,5 hPa 0,0 l/m 2 min 0 min 0,0 UV-I 279 W/m 12,9 km/h (3 Bft)
22.01.2014 12:38 5,8 C 4,4 C 79 % 1011,5 hPa 0,0 l/m 2 min 0 min 0,0 UV-I 285 W/m 7,7 km/h (2 Bft)
22.01.2014 12:40 5,9 C 4,4 C 80 % 1011,5 hPa 0,0 l/m 2 min 0 min 0,0 UV-I 283 W/m 7,7 km/h (2 Bft)
22.01.2014 12:42 6,1 C 4,4 C 80 % 1011,6 hPa 0,0 l/m 2 min 0 min 0,0 UV-I 283 W/m 10,3 km/h (2 Bft)
22.01.2014 12:44 6,1 C 4,4 C 79 % 1011,6 hPa 0,0 l/m 2 min 0 min 0,0 UV-I 288 W/m 15,4 km/h (3 Bft)
22.01.2014 12:46 6,1 C 4,4 C 78 % 1011,6 hPa 0,0 l/m 2 min 0 min 0,0 UV-I 292 W/m 12,9 km/h (3 Bft)
22.01.2014 12:48 5,9 C 4,4 C 78 % 1011,6 hPa 0,0 l/m 2 min 0 min 0,0 UV-I 288 W/m 10,3 km/h (2 Bft)
22.01.2014 12:50 5,9 C 4,4 C 79 % 1011,6 hPa 0,0 l/m 2 min 0 min 0,0 UV-I 288 W/m 10,3 km/h (2 Bft)
22.01.2014 12:52 5,9 C 4,4 C 79 % 1011,5 hPa 0,0 l/m 2 min 0 min 0,0 UV-I 287 W/m 7,7 km/h (2 Bft)
22.01.2014 12:54 6,0 C 4,4 C 79 % 1011,6 hPa 0,0 l/m 2 min 0 min 0,0 UV-I 290 W/m 15,4 km/h (3 Bft)
22.01.2014 12:56 6,1 C 4,4 C 79 % 1011,7 hPa 0,0 l/m 2 min 0 min 0,0 UV-I 290 W/m 10,3 km/h (2 Bft)
22.01.2014 12:58 6,0 C 4,4 C 79 % 1011,6 hPa 0,0 l/m 2 min 0 min 0,0 UV-I 281 W/m 5,1 km/h (1 Bft)
22.01.2014 13:00 6,0 C 4,4 C 79 % 1011,6 hPa 0,0 l/m 2 min 0 min 0,0 UV-I 278 W/m 10,3 km/h (2 Bft)
22.01.2014 13:02 6,1 C 4,4 C 79 % 1011,6 hPa 0,0 l/m 2 min 0 min 0,0 UV-I 281 W/m 12,9 km/h (3 Bft)
22.01.2014 13:04 6,3 C 5,0 C 79 % 1011,6 hPa 0,0 l/m 2 min 0 min 0,0 UV-I 279 W/m 18,0 km/h (3 Bft)
22.01.2014 13:06 6,2 C 4,4 C 78 % 1011,6 hPa 0,0 l/m 2 min 0 min 0,0 UV-I 279 W/m 15,4 km/h (3 Bft)
22.01.2014 13:08 6,1 C 4,4 C 78 % 1011,6 hPa 0,0 l/m 2 min 0 min 0,0 UV-I 279 W/m 10,3 km/h (2 Bft)
22.01.2014 13:10 6,2 C 4,4 C 78 % 1011,6 hPa 0,0 l/m 2 min 0 min 0,0 UV-I 278 W/m 10,3 km/h (2 Bft)
22.01.2014 13:12 6,2 C 4,4 C 78 % 1011,7 hPa 0,0 l/m 2 min 0 min 0,0 UV-I 278 W/m 7,7 km/h (2 Bft)
22.01.2014 13:14 6,2 C 4,4 C 78 % 1011,7 hPa 0,0 l/m 2 min 0 min 0,0 UV-I 281 W/m 12,9 km/h (3 Bft)
22.01.2014 13:16 6,1 C 5,0 C 78 % 1011,6 hPa 0,0 l/m 2 min 0 min 0,0 UV-I 285 W/m 10,3 km/h (2 Bft)
22.01.2014 13:18 6,1 C 4,4 C 78 % 1011,6 hPa 0,0 l/m 2 min 0 min 0,0 UV-I 285 W/m 10,3 km/h (2 Bft)
22.01.2014 13:20 6,1 C 4,4 C 79 % 1011,7 hPa 0,0 l/m 2 min 0 min 0,0 UV-I 285 W/m 10,3 km/h (2 Bft)
22.01.2014 13:22 6,2 C 5,0 C 79 % 1011,6 hPa 0,0 l/m 2 min 0 min 0,0 UV-I 281 W/m 0,0 km/h (0 Bft)
22.01.2014 13:24 6,3 C 5,0 C 79 % 1011,6 hPa 0,0 l/m 2 min 0 min 0,0 UV-I 276 W/m 2,6 km/h (1 Bft)
22.01.2014 13:26 6,4 C 5,0 C 78 % 1011,6 hPa 0,0 l/m 2 min 0 min 0,0 UV-I 279 W/m 10,3 km/h (2 Bft)
22.01.2014 13:28 6,6 C 5,0 C 78 % 1011,6 hPa 0,0 l/m 2 min 0 min 0,0 UV-I 279 W/m 12,9 km/h (3 Bft)
22.01.2014 13:30 6,5 C 5,0 C 77 % 1011,6 hPa 0,0 l/m 2 min 0 min 0,0 UV-I 279 W/m 15,4 km/h (3 Bft)
22.01.2014 13:32 6,5 C 5,0 C 78 % 1011,6 hPa 0,0 l/m 2 min 0 min 0,0 UV-I 279 W/m 20,6 km/h (4 Bft)
22.01.2014 13:34 6,4 C 5,0 C 78 % 1011,5 hPa 0,0 l/m 2 min 0 min 0,0 UV-I 276 W/m 15,4 km/h (3 Bft)
22.01.2014 13:36 6,4 C 5,0 C 78 % 1011,5 hPa 0,0 l/m 2 min 0 min 0,0 UV-I 276 W/m 20,6 km/h (4 Bft)
22.01.2014 13:38 6,4 C 5,0 C 78 % 1011,5 hPa 0,0 l/m 2 min 0 min 0,0 UV-I 278 W/m 18,0 km/h (3 Bft)
22.01.2014 13:40 6,4 C 5,0 C 78 % 1011,5 hPa 0,0 l/m 2 min 0 min 0,0 UV-I 276 W/m 15,4 km/h (3 Bft)
22.01.2014 13:42 6,4 C 5,0 C 78 % 1011,5 hPa 0,0 l/m 2 min 0 min 0,0 UV-I 274 W/m 15,4 km/h (3 Bft)
22.01.2014 13:44 6,4 C 5,0 C 78 % 1011,5 hPa 0,0 l/m 2 min 0 min 0,0 UV-I 272 W/m 12,9 km/h (3 Bft)
22.01.2014 13:46 6,4 C 5,0 C 78 % 1011,4 hPa 0,0 l/m 2 min 0 min 0,0 UV-I 271 W/m 10,3 km/h (2 Bft)
22.01.2014 13:48 6,3 C 5,0 C 78 % 1011,4 hPa 0,0 l/m 2 min 0 min 0,0 UV-I 258 W/m 10,3 km/h (2 Bft)
22.01.2014 13:50 6,3 C 5,0 C 78 % 1011,4 hPa 0,0 l/m 2 min 0 min 0,0 UV-I 267 W/m 18,0 km/h (3 Bft)
22.01.2014 13:52 6,4 C 5,0 C 78 % 1011,3 hPa 0,0 l/m 2 min 0 min 0,0 UV-I 269 W/m 7,7 km/h (2 Bft)
22.01.2014 13:54 6,4 C 5,0 C 78 % 1011,3 hPa 0,0 l/m 2 min 0 min 0,0 UV-I 267 W/m 12,9 km/h (3 Bft)
22.01.2014 13:56 6,6 C 5,0 C 78 % 1011,3 hPa 0,0 l/m 2 min 0 min 0,0 UV-I 265 W/m 10,3 km/h (2 Bft)
22.01.2014 13:58 6,6 C 5,0 C 78 % 1011,2 hPa 0,0 l/m 2 min 0 min 0,0 UV-I 264 W/m 18,0 km/h (3 Bft)
22.01.2014 14:00 6,5 C 5,0 C 78 % 1011,2 hPa 0,0 l/m 2 min 0 min 0,0 UV-I 257 W/m 15,4 km/h (3 Bft)
22.01.2014 14:02 6,5 C 5,0 C 78 % 1011,2 hPa 0,0 l/m 2 min 0 min 0,0 UV-I 253 W/m 0,0 km/h (0 Bft)
22.01.2014 14:04 6,6 C 5,0 C 79 % 1011,2 hPa 0,0 l/m 2 min 0 min 0,0 UV-I 262 W/m 10,3 km/h (2 Bft)
22.01.2014 14:06 6,6 C 5,0 C 79 % 1011,2 hPa 0,0 l/m 2 min 0 min 0,0 UV-I 267 W/m 12,9 km/h (3 Bft)
22.01.2014 14:08 6,6 C 5,0 C 79 % 1011,1 hPa 0,0 l/m 2 min 0 min 0,0 UV-I 271 W/m 10,3 km/h (2 Bft)
22.01.2014 14:10 6,7 C 5,6 C 80 % 1011,2 hPa 0,0 l/m 2 min 0 min 0,0 UV-I 272 W/m 10,3 km/h (2 Bft)
22.01.2014 14:12 6,7 C 5,6 C 80 % 1011,1 hPa 0,0 l/m 2 min 0 min 0,0 UV-I 272 W/m 12,9 km/h (3 Bft)
22.01.2014 14:14 6,7 C 5,6 C 81 % 1011,1 hPa 0,0 l/m 2 min 0 min 0,0 UV-I 265 W/m 10,3 km/h (2 Bft)
22.01.2014 14:16 6,6 C 5,6 C 81 % 1011,1 hPa 0,0 l/m 2 min 0 min 0,0 UV-I 267 W/m 15,4 km/h (3 Bft)
22.01.2014 14:18 6,6 C 5,6 C 81 % 1011,0 hPa 0,0 l/m 2 min 0 min 0,0 UV-I 262 W/m 18,0 km/h (3 Bft)
22.01.2014 14:20 6,6 C 5,6 C 81 % 1011,1 hPa 0,0 l/m 2 min 0 min 0,0 UV-I 250 W/m 15,4 km/h (3 Bft)
22.01.2014 14:22 6,6 C 5,6 C 81 % 1011,1 hPa 0,0 l/m 2 min 0 min 0,0 UV-I 246 W/m 7,7 km/h (2 Bft)
22.01.2014 14:24 6,7 C 5,6 C 81 % 1011,1 hPa 0,0 l/m 2 min 0 min 0,0 UV-I 232 W/m 12,9 km/h (3 Bft)
22.01.2014 14:26 6,6 C 5,6 C 80 % 1011,0 hPa 0,0 l/m 2 min 0 min 0,0 UV-I 202 W/m 18,0 km/h (3 Bft)
22.01.2014 14:28 6,5 C 5,0 C 81 % 1011,0 hPa 0,0 l/m 2 min 0 min 0,0 UV-I 218 W/m 15,4 km/h (3 Bft)
22.01.2014 14:30 6,4 C 5,0 C 81 % 1011,0 hPa 0,0 l/m 2 min 0 min 0,0 UV-I 227 W/m 18,0 km/h (3 Bft)
22.01.2014 14:32 6,4 C 5,0 C 81 % 1011,1 hPa 0,0 l/m 2 min 0 min 0,0 UV-I 185 W/m 20,6 km/h (4 Bft)
22.01.2014 14:34 6,3 C 5,0 C 81 % 1011,0 hPa 0,0 l/m 2 min 0 min 0,0 UV-I 193 W/m 12,9 km/h (3 Bft)
22.01.2014 14:36 6,2 C 5,0 C 82 % 1011,1 hPa 0,0 l/m 2 min 0 min 0,0 UV-I 195 W/m 7,7 km/h (2 Bft)
22.01.2014 14:38 6,2 C 5,0 C 82 % 1011,1 hPa 0,0 l/m 2 min 0 min 0,0 UV-I 190 W/m 7,7 km/h (2 Bft)
22.01.2014 14:40 6,2 C 5,0 C 82 % 1011,1 hPa 0,0 l/m 2 min 0 min 0,0 UV-I 165 W/m 0,0 km/h (0 Bft)
22.01.2014 14:42 6,2 C 5,0 C 82 % 1011,1 hPa 0,0 l/m 2 min 0 min 0,0 UV-I 195 W/m 10,3 km/h (2 Bft)
22.01.2014 14:44 6,1 C 5,0 C 82 % 1011,1 hPa 0,0 l/m 2 min 0 min 0,0 UV-I 174 W/m 10,3 km/h (2 Bft)
22.01.2014 14:46 6,1 C 4,4 C 82 % 1011,1 hPa 0,0 l/m 0 min 0 min 0,0 UV-I 67 W/m 10,3 km/h (2 Bft)
22.01.2014 14:48 5,9 C 4,4 C 82 % 1011,1 hPa 0,0 l/m 0 min 0 min 0,0 UV-I 134 W/m 10,3 km/h (2 Bft)
22.01.2014 14:50 5,9 C 4,4 C 83 % 1011,1 hPa 0,0 l/m 2 min 0 min 0,0 UV-I 172 W/m 12,9 km/h (3 Bft)
22.01.2014 14:52 5,8 C 4,4 C 83 % 1011,1 hPa 0,0 l/m 0 min 0 min 0,0 UV-I 102 W/m 15,4 km/h (3 Bft)
22.01.2014 14:54 5,8 C 4,4 C 83 % 1011,1 hPa 0,0 l/m 2 min 0 min 0,0 UV-I 162 W/m 10,3 km/h (2 Bft)
22.01.2014 14:56 5,8 C 4,4 C 83 % 1011,1 hPa 0,0 l/m 2 min 0 min 0,0 UV-I 132 W/m 7,7 km/h (2 Bft)
22.01.2014 14:58 5,8 C 4,4 C 83 % 1011,2 hPa 0,0 l/m 0 min 0 min 0,0 UV-I 88 W/m 7,7 km/h (2 Bft)
22.01.2014 15:00 5,8 C 4,4 C 83 % 1011,2 hPa 0,0 l/m 0 min 0 min 0,0 UV-I 116 W/m 0,0 km/h (0 Bft)
22.01.2014 15:02 5,8 C 4,4 C 83 % 1011,3 hPa 0,0 l/m 2 min 0 min 0,0 UV-I 176 W/m 7,7 km/h (2 Bft)
22.01.2014 15:04 5,8 C 4,4 C 83 % 1011,2 hPa 0,0 l/m 2 min 0 min 0,0 UV-I 181 W/m 10,3 km/h (2 Bft)
22.01.2014 15:06 5,9 C 4,4 C 83 % 1011,2 hPa 0,0 l/m 2 min 0 min 0,0 UV-I 172 W/m 7,7 km/h (2 Bft)
22.01.2014 15:08 5,9 C 4,4 C 83 % 1011,3 hPa 0,0 l/m 2 min 0 min 0,0 UV-I 156 W/m 7,7 km/h (2 Bft)
22.01.2014 15:10 5,9 C 4,4 C 83 % 1011,3 hPa 0,0 l/m 0 min 0 min 0,0 UV-I 116 W/m 10,3 km/h (2 Bft)
22.01.2014 15:12 5,8 C 4,4 C 82 % 1011,3 hPa 0,0 l/m 0 min 0 min 0,0 UV-I 118 W/m 2,6 km/h (1 Bft)
22.01.2014 15:14 5,8 C 4,4 C 83 % 1011,3 hPa 0,0 l/m 2 min 0 min 0,0 UV-I 142 W/m 10,3 km/h (2 Bft)
22.01.2014 15:16 5,7 C 4,4 C 83 % 1011,3 hPa 0,0 l/m 2 min 0 min 0,0 UV-I 142 W/m 10,3 km/h (2 Bft)
22.01.2014 15:18 5,7 C 4,4 C 83 % 1011,3 hPa 0,0 l/m 2 min 0 min 0,0 UV-I 116 W/m 12,9 km/h (3 Bft)
22.01.2014 15:20 5,7 C 4,4 C 83 % 1011,4 hPa 0,0 l/m 2 min 0 min 0,0 UV-I 114 W/m 0,0 km/h (0 Bft)
22.01.2014 15:22 5,7 C 4,4 C 83 % 1011,3 hPa 0,0 l/m 2 min 0 min 0,0 UV-I 125 W/m 0,0 km/h (0 Bft)
22.01.2014 15:24 5,6 C 4,4 C 83 % 1011,4 hPa 0,0 l/m 0 min 0 min 0,0 UV-I 81 W/m 7,7 km/h (2 Bft)
22.01.2014 15:26 5,6 C 3,9 C 83 % 1011,5 hPa 0,0 l/m 0 min 0 min 0,0 UV-I 95 W/m 7,7 km/h (2 Bft)
22.01.2014 15:28 5,6 C 3,9 C 84 % 1011,5 hPa 0,0 l/m 2 min 0 min 0,0 UV-I 107 W/m 12,9 km/h (3 Bft)
22.01.2014 15:30 5,5 C 3,9 C 84 % 1011,5 hPa 0,0 l/m 0 min 0 min 0,0 UV-I 97 W/m 10,3 km/h (2 Bft)
22.01.2014 15:32 5,4 C 3,9 C 84 % 1011,5 hPa 0,0 l/m 0 min 0 min 0,0 UV-I 62 W/m 10,3 km/h (2 Bft)
22.01.2014 15:34 5,4 C 3,9 C 84 % 1011,5 hPa 0,0 l/m 0 min 0 min 0,0 UV-I 70 W/m 2,6 km/h (1 Bft)
22.01.2014 15:36 5,4 C 3,9 C 84 % 1011,5 hPa 0,0 l/m 0 min 0 min 0,0 UV-I 42 W/m 7,7 km/h (2 Bft)
22.01.2014 15:38 5,4 C 3,9 C 84 % 1011,5 hPa 0,0 l/m 0 min 0 min 0,0 UV-I 67 W/m 7,7 km/h (2 Bft)
22.01.2014 15:40 5,3 C 3,9 C 84 % 1011,6 hPa 0,0 l/m 0 min 0 min 0,0 UV-I 76 W/m 5,1 km/h (1 Bft)
22.01.2014 15:42 5,3 C 3,9 C 84 % 1011,5 hPa 0,0 l/m 0 min 0 min 0,0 UV-I 62 W/m 7,7 km/h (2 Bft)
22.01.2014 15:44 5,3 C 3,9 C 84 % 1011,6 hPa 0,0 l/m 0 min 0 min 0,0 UV-I 47 W/m 0,0 km/h (0 Bft)
22.01.2014 15:46 5,3 C 3,9 C 84 % 1011,6 hPa 0,0 l/m 0 min 0 min 0,0 UV-I 40 W/m 0,0 km/h (0 Bft)
22.01.2014 15:48 5,2 C 3,9 C 84 % 1011,7 hPa 0,0 l/m 0 min 0 min 0,0 UV-I 37 W/m 10,3 km/h (2 Bft)
22.01.2014 15:50 5,2 C 3,3 C 85 % 1011,7 hPa 0,0 l/m 0 min 0 min 0,0 UV-I 35 W/m 10,3 km/h (2 Bft)
22.01.2014 15:52 5,2 C 3,3 C 85 % 1011,6 hPa 0,0 l/m 0 min 0 min 0,0 UV-I 33 W/m 2,6 km/h (1 Bft)
22.01.2014 15:54 5,2 C 3,3 C 85 % 1011,6 hPa 0,0 l/m 0 min 0 min 0,0 UV-I 32 W/m 10,3 km/h (2 Bft)
22.01.2014 15:56 5,1 C 3,3 C 85 % 1011,7 hPa 0,0 l/m 0 min 0 min 0,0 UV-I 30 W/m 10,3 km/h (2 Bft)
22.01.2014 15:58 5,1 C 3,3 C 85 % 1011,7 hPa 0,0 l/m 0 min 0 min 0,0 UV-I 30 W/m 0,0 km/h (0 Bft)
22.01.2014 16:00 5,1 C 3,3 C 85 % 1011,6 hPa 0,0 l/m 0 min 0 min 0,0 UV-I 28 W/m 0,0 km/h (0 Bft)
22.01.2014 16:02 5,1 C 3,3 C 85 % 1011,6 hPa 0,0 l/m 0 min 0 min 0,0 UV-I 28 W/m 0,0 km/h (0 Bft)
22.01.2014 16:04 5,0 C 3,3 C 85 % 1011,7 hPa 0,0 l/m 0 min 0 min 0,0 UV-I 26 W/m 0,0 km/h (0 Bft)
22.01.2014 16:06 5,0 C 3,3 C 85 % 1011,6 hPa 0,0 l/m 0 min 0 min 0,0 UV-I 25 W/m 7,7 km/h (2 Bft)
22.01.2014 16:08 4,9 C 3,3 C 86 % 1011,6 hPa 0,0 l/m 0 min 0 min 0,0 UV-I 25 W/m 0,0 km/h (0 Bft)
22.01.2014 16:10 4,9 C 2,8 C 86 % 1011,6 hPa 0,0 l/m 0 min 0 min 0,0 UV-I 23 W/m 0,0 km/h (0 Bft)
22.01.2014 16:12 4,9 C 2,8 C 86 % 1011,7 hPa 0,0 l/m 0 min 0 min 0,0 UV-I 23 W/m 0,0 km/h (0 Bft)
22.01.2014 16:14 4,8 C 2,8 C 86 % 1011,7 hPa 0,0 l/m 0 min 0 min 0,0 UV-I 21 W/m 0,0 km/h (0 Bft)
22.01.2014 16:16 4,8 C 2,8 C 86 % 1011,7 hPa 0,0 l/m 0 min 0 min 0,0 UV-I 21 W/m 0,0 km/h (0 Bft)
22.01.2014 16:18 4,8 C 2,8 C 86 % 1011,8 hPa 0,0 l/m 0 min 0 min 0,0 UV-I 19 W/m 0,0 km/h (0 Bft)
22.01.2014 16:20 4,7 C 2,8 C 86 % 1011,8 hPa 0,0 l/m 0 min 0 min 0,0 UV-I 19 W/m 0,0 km/h (0 Bft)
22.01.2014 16:22 4,7 C 2,8 C 86 % 1011,8 hPa 0,0 l/m 0 min 0 min 0,0 UV-I 19 W/m 0,0 km/h (0 Bft)
22.01.2014 16:24 4,7 C 2,8 C 86 % 1011,8 hPa 0,0 l/m 0 min 0 min 0,0 UV-I 18 W/m 0,0 km/h (0 Bft)
22.01.2014 16:26 4,7 C 2,2 C 86 % 1011,8 hPa 0,0 l/m 0 min 0 min 0,0 UV-I 18 W/m 0,0 km/h (0 Bft)
22.01.2014 16:28 4,6 C 2,2 C 86 % 1011,9 hPa 0,0 l/m 0 min 0 min 0,0 UV-I 16 W/m 0,0 km/h (0 Bft)
22.01.2014 16:30 4,6 C 2,2 C 86 % 1011,9 hPa 0,0 l/m 0 min 0 min 0,0 UV-I 16 W/m 0,0 km/h (0 Bft)
22.01.2014 16:32 4,5 C 2,2 C 86 % 1011,9 hPa 0,0 l/m 0 min 0 min 0,0 UV-I 16 W/m 0,0 km/h (0 Bft)
22.01.2014 16:34 4,5 C 2,2 C 87 % 1011,9 hPa 0,0 l/m 0 min 0 min 0,0 UV-I 16 W/m 0,0 km/h (0 Bft)
22.01.2014 16:36 4,4 C 2,2 C 87 % 1011,8 hPa 0,0 l/m 0 min 0 min 0,0 UV-I 14 W/m 0,0 km/h (0 Bft)
22.01.2014 16:38 4,4 C 2,2 C 87 % 1011,9 hPa 0,0 l/m 0 min 0 min 0,0 UV-I 14 W/m 0,0 km/h (0 Bft)
22.01.2014 16:40 4,4 C 1,7 C 87 % 1011,9 hPa 0,0 l/m 0 min 0 min 0,0 UV-I 12 W/m 0,0 km/h (0 Bft)
22.01.2014 16:42 4,3 C 1,7 C 87 % 1011,9 hPa 0,0 l/m 0 min 0 min 0,0 UV-I 12 W/m 0,0 km/h (0 Bft)
22.01.2014 16:44 4,3 C 1,7 C 87 % 1011,9 hPa 0,0 l/m 0 min 0 min 0,0 UV-I 12 W/m 0,0 km/h (0 Bft)
22.01.2014 16:46 4,3 C 1,7 C 87 % 1011,9 hPa 0,0 l/m 0 min 0 min 0,0 UV-I 11 W/m 0,0 km/h (0 Bft)
22.01.2014 16:48 4,2 C 1,7 C 87 % 1011,9 hPa 0,0 l/m 0 min 0 min 0,0 UV-I 11 W/m 0,0 km/h (0 Bft)
22.01.2014 16:50 4,2 C 1,7 C 87 % 1012,0 hPa 0,0 l/m 0 min 0 min 0,0 UV-I 9 W/m 0,0 km/h (0 Bft)
22.01.2014 16:52 4,2 C 1,1 C 88 % 1012,0 hPa 0,0 l/m 0 min 0 min 0,0 UV-I 9 W/m 0,0 km/h (0 Bft)
22.01.2014 16:54 4,2 C 1,1 C 87 % 1012,0 hPa 0,0 l/m 0 min 0 min 0,0 UV-I 9 W/m 0,0 km/h (0 Bft)
22.01.2014 16:56 4,1 C 1,1 C 88 % 1012,0 hPa 0,0 l/m 0 min 0 min 0,0 UV-I 7 W/m 0,0 km/h (0 Bft)
22.01.2014 16:58 4,0 C 1,1 C 88 % 1012,0 hPa 0,0 l/m 0 min 0 min 0,0 UV-I 5 W/m 0,0 km/h (0 Bft)
22.01.2014 17:00 3,9 C 1,1 C 88 % 1011,9 hPa 0,0 l/m 0 min 0 min 0,0 UV-I 5 W/m 0,0 km/h (0 Bft)
22.01.2014 17:02 3,9 C 1,1 C 88 % 1012,0 hPa 0,0 l/m 0 min 0 min 0,0 UV-I 5 W/m 0,0 km/h (0 Bft)
22.01.2014 17:04 3,9 C 1,1 C 88 % 1012,0 hPa 0,0 l/m 0 min 0 min 0,0 UV-I 0 W/m 0,0 km/h (0 Bft)
22.01.2014 17:06 3,8 C 1,1 C 88 % 1012,0 hPa 0,0 l/m 0 min 0 min 0,0 UV-I 0 W/m 0,0 km/h (0 Bft)
22.01.2014 17:08 3,7 C 0,6 C 88 % 1012,0 hPa 0,0 l/m 0 min 0 min 0,0 UV-I 0 W/m 0,0 km/h (0 Bft)
22.01.2014 17:10 3,7 C 0,6 C 88 % 1012,0 hPa 0,0 l/m 0 min 0 min 0,0 UV-I 0 W/m 0,0 km/h (0 Bft)
22.01.2014 17:12 3,7 C 0,6 C 89 % 1012,0 hPa 0,0 l/m 0 min 0 min 0,0 UV-I 0 W/m 0,0 km/h (0 Bft)
22.01.2014 17:14 3,6 C 0,6 C 89 % 1012,1 hPa 0,0 l/m 0 min 0 min 0,0 UV-I 0 W/m 0,0 km/h (0 Bft)
22.01.2014 17:16 3,6 C 0,6 C 89 % 1012,0 hPa 0,0 l/m 0 min 0 min 0,0 UV-I 0 W/m 0,0 km/h (0 Bft)
22.01.2014 17:18 3,6 C 0,6 C 89 % 1012,0 hPa 0,0 l/m 0 min 0 min 0,0 UV-I 0 W/m 0,0 km/h (0 Bft)
22.01.2014 17:20 3,6 C 0,6 C 89 % 1012,1 hPa 0,0 l/m 0 min 0 min 0,0 UV-I 0 W/m 0,0 km/h (0 Bft)
22.01.2014 17:22 3,6 C 0,6 C 89 % 1012,1 hPa 0,0 l/m 0 min 0 min 0,0 UV-I 0 W/m 0,0 km/h (0 Bft)
22.01.2014 17:24 3,6 C 0,6 C 89 % 1012,1 hPa 0,0 l/m 0 min 0 min 0,0 UV-I 0 W/m 0,0 km/h (0 Bft)
22.01.2014 17:26 3,5 C 0,6 C 89 % 1012,1 hPa 0,0 l/m 0 min 0 min 0,0 UV-I 0 W/m 0,0 km/h (0 Bft)
22.01.2014 17:28 3,4 C 0,6 C 89 % 1012,1 hPa 0,0 l/m 0 min 0 min 0,0 UV-I 0 W/m 0,0 km/h (0 Bft)
22.01.2014 17:30 3,4 C 0,6 C 89 % 1012,1 hPa 0,0 l/m 0 min 0 min 0,0 UV-I 0 W/m 0,0 km/h (0 Bft)
22.01.2014 17:32 3,4 C 0,6 C 89 % 1012,1 hPa 0,0 l/m 0 min 0 min 0,0 UV-I 0 W/m 0,0 km/h (0 Bft)
22.01.2014 17:34 3,4 C 0,6 C 90 % 1012,1 hPa 0,0 l/m 0 min 0 min 0,0 UV-I 0 W/m 0,0 km/h (0 Bft)
22.01.2014 17:36 3,4 C 0,6 C 90 % 1012,2 hPa 0,0 l/m 0 min 0 min 0,0 UV-I 0 W/m 0,0 km/h (0 Bft)
22.01.2014 17:38 3,4 C 0,6 C 90 % 1012,1 hPa 0,0 l/m 0 min 0 min 0,0 UV-I 0 W/m 0,0 km/h (0 Bft)
22.01.2014 17:40 3,3 C 0,6 C 90 % 1012,2 hPa 0,0 l/m 0 min 0 min 0,0 UV-I 0 W/m 0,0 km/h (0 Bft)
22.01.2014 17:42 3,3 C 0,6 C 90 % 1012,2 hPa 0,0 l/m 0 min 0 min 0,0 UV-I 0 W/m 0,0 km/h (0 Bft)
22.01.2014 17:44 3,3 C 0,6 C 90 % 1012,1 hPa 0,0 l/m 0 min 0 min 0,0 UV-I 0 W/m 0,0 km/h (0 Bft)
22.01.2014 17:46 3,2 C 0,6 C 90 % 1012,2 hPa 0,0 l/m 0 min 0 min 0,0 UV-I 0 W/m 0,0 km/h (0 Bft)
22.01.2014 17:48 3,2 C 0,6 C 90 % 1012,2 hPa 0,0 l/m 0 min 0 min 0,0 UV-I 0 W/m 0,0 km/h (0 Bft)
22.01.2014 17:50 3,2 C 0,6 C 90 % 1012,2 hPa 0,0 l/m 0 min 0 min 0,0 UV-I 0 W/m 0,0 km/h (0 Bft)
22.01.2014 17:52 3,2 C 0,6 C 90 % 1012,3 hPa 0,0 l/m 0 min 0 min 0,0 UV-I 0 W/m 0,0 km/h (0 Bft)
22.01.2014 17:54 3,1 C 0,6 C 90 % 1012,2 hPa 0,0 l/m 0 min 0 min 0,0 UV-I 0 W/m 0,0 km/h (0 Bft)
22.01.2014 17:56 3,1 C 0,0 C 90 % 1012,3 hPa 0,0 l/m 0 min 0 min 0,0 UV-I 0 W/m 0,0 km/h (0 Bft)
22.01.2014 17:58 3,0 C 0,0 C 90 % 1012,3 hPa 0,0 l/m 0 min 0 min 0,0 UV-I 0 W/m 0,0 km/h (0 Bft)
22.01.2014 18:00 2,9 C 0,0 C 90 % 1012,3 hPa 0,0 l/m 0 min 0 min 0,0 UV-I 0 W/m 0,0 km/h (0 Bft)
22.01.2014 18:02 2,9 C 0,0 C 90 % 1012,4 hPa 0,0 l/m 0 min 0 min 0,0 UV-I 0 W/m 0,0 km/h (0 Bft)
22.01.2014 18:04 2,8 C 0,0 C 91 % 1012,4 hPa 0,0 l/m 0 min 0 min 0,0 UV-I 0 W/m 0,0 km/h (0 Bft)
22.01.2014 18:06 2,7 C 0,0 C 91 % 1012,5 hPa 0,0 l/m 0 min 0 min 0,0 UV-I 0 W/m 0,0 km/h (0 Bft)
22.01.2014 18:08 2,7 C 0,0 C 91 % 1012,5 hPa 0,0 l/m 0 min 0 min 0,0 UV-I 0 W/m 0,0 km/h (0 Bft)
22.01.2014 18:10 2,7 C 0,0 C 91 % 1012,4 hPa 0,0 l/m 0 min 0 min 0,0 UV-I 0 W/m 0,0 km/h (0 Bft)
22.01.2014 18:12 2,6 C 0,0 C 91 % 1012,5 hPa 0,0 l/m 0 min 0 min 0,0 UV-I 0 W/m 0,0 km/h (0 Bft)
22.01.2014 18:14 2,6 C 0,0 C 91 % 1012,5 hPa 0,0 l/m 0 min 0 min 0,0 UV-I 0 W/m 0,0 km/h (0 Bft)
22.01.2014 18:16 2,6 C 0,0 C 91 % 1012,5 hPa 0,0 l/m 0 min 0 min 0,0 UV-I 0 W/m 0,0 km/h (0 Bft)
22.01.2014 18:18 2,6 C 0,0 C 91 % 1012,5 hPa 0,0 l/m 0 min 0 min 0,0 UV-I 0 W/m 0,0 km/h (0 Bft)
22.01.2014 18:20 2,6 C 0,0 C 91 % 1012,5 hPa 0,0 l/m 0 min 0 min 0,0 UV-I 0 W/m 0,0 km/h (0 Bft)
22.01.2014 18:22 2,6 C 0,0 C 91 % 1012,5 hPa 0,0 l/m 0 min 0 min 0,0 UV-I 0 W/m 0,0 km/h (0 Bft)
22.01.2014 18:24 2,6 C -0,6 C 91 % 1012,5 hPa 0,0 l/m 0 min 0 min 0,0 UV-I 0 W/m 0,0 km/h (0 Bft)
22.01.2014 18:26 2,5 C -0,6 C 91 % 1012,5 hPa 0,0 l/m 0 min 0 min 0,0 UV-I 0 W/m 0,0 km/h (0 Bft)
22.01.2014 18:28 2,5 C -0,6 C 92 % 1012,5 hPa 0,0 l/m 0 min 0 min 0,0 UV-I 0 W/m 0,0 km/h (0 Bft)
22.01.2014 18:30 2,4 C -0,6 C 92 % 1012,5 hPa 0,0 l/m 0 min 0 min 0,0 UV-I 0 W/m 0,0 km/h (0 Bft)
22.01.2014 18:32 2,5 C -0,6 C 92 % 1012,6 hPa 0,0 l/m 0 min 0 min 0,0 UV-I 0 W/m 0,0 km/h (0 Bft)
22.01.2014 18:34 2,5 C 0,0 C 92 % 1012,6 hPa 0,0 l/m 0 min 0 min 0,0 UV-I 0 W/m 0,0 km/h (0 Bft)
22.01.2014 18:36 2,5 C 0,0 C 92 % 1012,6 hPa 0,0 l/m 0 min 0 min 0,0 UV-I 0 W/m 0,0 km/h (0 Bft)
22.01.2014 18:38 2,5 C 0,0 C 92 % 1012,6 hPa 0,0 l/m 0 min 0 min 0,0 UV-I 0 W/m 0,0 km/h (0 Bft)
22.01.2014 18:40 2,5 C 0,0 C 92 % 1012,6 hPa 0,0 l/m 0 min 0 min 0,0 UV-I 0 W/m 0,0 km/h (0 Bft)
22.01.2014 18:42 2,4 C 0,0 C 92 % 1012,6 hPa 0,0 l/m 0 min 0 min 0,0 UV-I 0 W/m 0,0 km/h (0 Bft)
22.01.2014 18:44 2,4 C 0,0 C 92 % 1012,6 hPa 0,0 l/m 0 min 0 min 0,0 UV-I 0 W/m 0,0 km/h (0 Bft)
22.01.2014 18:46 2,4 C 0,0 C 92 % 1012,6 hPa 0,0 l/m 0 min 0 min 0,0 UV-I 0 W/m 0,0 km/h (0 Bft)
22.01.2014 18:48 2,4 C 0,0 C 92 % 1012,7 hPa 0,0 l/m 0 min 0 min 0,0 UV-I 0 W/m 0,0 km/h (0 Bft)
22.01.2014 18:50 2,4 C 0,0 C 92 % 1012,6 hPa 0,0 l/m 0 min 0 min 0,0 UV-I 0 W/m 0,0 km/h (0 Bft)
22.01.2014 18:52 2,3 C 0,0 C 92 % 1012,7 hPa 0,0 l/m 0 min 0 min 0,0 UV-I 0 W/m 0,0 km/h (0 Bft)
22.01.2014 18:54 2,3 C 0,0 C 92 % 1012,7 hPa 0,0 l/m 0 min 0 min 0,0 UV-I 0 W/m 0,0 km/h (0 Bft)
22.01.2014 18:56 2,3 C 0,0 C 92 % 1012,7 hPa 0,0 l/m 0 min 0 min 0,0 UV-I 0 W/m 0,0 km/h (0 Bft)
22.01.2014 18:58 2,3 C 0,0 C 92 % 1012,6 hPa 0,0 l/m 0 min 0 min 0,0 UV-I 0 W/m 0,0 km/h (0 Bft)
22.01.2014 19:00 2,3 C 0,0 C 92 % 1012,7 hPa 0,0 l/m 0 min 0 min 0,0 UV-I 0 W/m 5,1 km/h (1 Bft)
22.01.2014 19:02 2,3 C 0,0 C 93 % 1012,7 hPa 0,0 l/m 0 min 0 min 0,0 UV-I 0 W/m 5,1 km/h (1 Bft)
22.01.2014 19:04 2,3 C 0,0 C 93 % 1012,7 hPa 0,0 l/m 0 min 0 min 0,0 UV-I 0 W/m 5,1 km/h (1 Bft)
22.01.2014 19:06 2,3 C 0,0 C 93 % 1012,7 hPa 0,0 l/m 0 min 0 min 0,0 UV-I 0 W/m 2,6 km/h (1 Bft)
22.01.2014 19:08 2,3 C 0,0 C 93 % 1012,7 hPa 0,0 l/m 0 min 0 min 0,0 UV-I 0 W/m 2,6 km/h (1 Bft)
22.01.2014 19:10 2,3 C 0,0 C 93 % 1012,7 hPa 0,0 l/m 0 min 0 min 0,0 UV-I 0 W/m 7,7 km/h (2 Bft)
22.01.2014 19:12 2,3 C 0,0 C 93 % 1012,7 hPa 0,0 l/m 0 min 0 min 0,0 UV-I 0 W/m 7,7 km/h (2 Bft)
22.01.2014 19:14 2,3 C 0,0 C 93 % 1012,7 hPa 0,0 l/m 0 min 0 min 0,0 UV-I 0 W/m 0,0 km/h (0 Bft)
22.01.2014 19:16 2,2 C 0,0 C 93 % 1012,8 hPa 0,0 l/m 0 min 0 min 0,0 UV-I 0 W/m 0,0 km/h (0 Bft)
22.01.2014 19:18 2,2 C 0,0 C 92 % 1012,8 hPa 0,0 l/m 0 min 0 min 0,0 UV-I 0 W/m 2,6 km/h (1 Bft)
22.01.2014 19:20 2,2 C 0,0 C 92 % 1012,8 hPa 0,0 l/m 0 min 0 min 0,0 UV-I 0 W/m 0,0 km/h (0 Bft)
22.01.2014 19:22 2,2 C 0,0 C 92 % 1012,7 hPa 0,0 l/m 0 min 0 min 0,0 UV-I 0 W/m 0,0 km/h (0 Bft)
22.01.2014 19:24 2,1 C 0,0 C 92 % 1012,8 hPa 0,0 l/m 0 min 0 min 0,0 UV-I 0 W/m 0,0 km/h (0 Bft)
22.01.2014 19:26 2,1 C 0,0 C 92 % 1012,7 hPa 0,0 l/m 0 min 0 min 0,0 UV-I 0 W/m 5,1 km/h (1 Bft)
22.01.2014 19:28 2,1 C 0,0 C 92 % 1012,8 hPa 0,0 l/m 0 min 0 min 0,0 UV-I 0 W/m 7,7 km/h (2 Bft)
22.01.2014 19:30 2,1 C 0,0 C 92 % 1012,9 hPa 0,0 l/m 0 min 0 min 0,0 UV-I 0 W/m 0,0 km/h (0 Bft)
22.01.2014 19:32 2,0 C 0,0 C 93 % 1012,9 hPa 0,0 l/m 0 min 0 min 0,0 UV-I 0 W/m 0,0 km/h (0 Bft)
22.01.2014 19:34 2,0 C 0,0 C 93 % 1012,8 hPa 0,0 l/m 0 min 0 min 0,0 UV-I 0 W/m 0,0 km/h (0 Bft)
22.01.2014 19:36 2,0 C 0,0 C 93 % 1012,8 hPa 0,0 l/m 0 min 0 min 0,0 UV-I 0 W/m 5,1 km/h (1 Bft)
22.01.2014 19:38 1,9 C 0,0 C 93 % 1012,8 hPa 0,0 l/m 0 min 0 min 0,0 UV-I 0 W/m 0,0 km/h (0 Bft)
22.01.2014 19:40 1,9 C 0,0 C 93 % 1012,8 hPa 0,0 l/m 0 min 0 min 0,0 UV-I 0 W/m 0,0 km/h (0 Bft)
22.01.2014 19:42 1,9 C 0,0 C 93 % 1012,8 hPa 0,0 l/m 0 min 0 min 0,0 UV-I 0 W/m 7,7 km/h (2 Bft)
22.01.2014 19:44 1,9 C 0,0 C 93 % 1012,8 hPa 0,0 l/m 0 min 0 min 0,0 UV-I 0 W/m 2,6 km/h (1 Bft)
22.01.2014 19:46 1,9 C 0,0 C 93 % 1012,9 hPa 0,0 l/m 0 min 0 min 0,0 UV-I 0 W/m 2,6 km/h (1 Bft)
22.01.2014 19:48 1,9 C 0,0 C 93 % 1012,8 hPa 0,0 l/m 0 min 0 min 0,0 UV-I 0 W/m 7,7 km/h (2 Bft)
22.01.2014 19:50 1,9 C 0,0 C 93 % 1012,8 hPa 0,0 l/m 0 min 0 min 0,0 UV-I 0 W/m 5,1 km/h (1 Bft)
22.01.2014 19:52 1,9 C 0,0 C 93 % 1012,8 hPa 0,0 l/m 0 min 0 min 0,0 UV-I 0 W/m 7,7 km/h (2 Bft)
22.01.2014 19:54 1,9 C 0,0 C 93 % 1012,8 hPa 0,0 l/m 0 min 0 min 0,0 UV-I 0 W/m 5,1 km/h (1 Bft)
22.01.2014 19:56 1,9 C 0,0 C 93 % 1012,8 hPa 0,0 l/m 0 min 0 min 0,0 UV-I 0 W/m 2,6 km/h (1 Bft)
22.01.2014 19:58 1,9 C 0,0 C 92 % 1012,8 hPa 0,0 l/m 0 min 0 min 0,0 UV-I 0 W/m 5,1 km/h (1 Bft)
22.01.2014 20:00 1,9 C 0,0 C 92 % 1012,9 hPa 0,0 l/m 0 min 0 min 0,0 UV-I 0 W/m 5,1 km/h (1 Bft)
22.01.2014 20:02 1,8 C 0,0 C 92 % 1012,9 hPa 0,0 l/m 0 min 0 min 0,0 UV-I 0 W/m 7,7 km/h (2 Bft)
22.01.2014 20:04 1,8 C 0,0 C 92 % 1013,0 hPa 0,0 l/m 0 min 0 min 0,0 UV-I 0 W/m 7,7 km/h (2 Bft)
22.01.2014 20:06 1,8 C 0,0 C 92 % 1012,9 hPa 0,0 l/m 0 min 0 min 0,0 UV-I 0 W/m 0,0 km/h (0 Bft)
22.01.2014 20:08 1,7 C 0,0 C 92 % 1012,9 hPa 0,0 l/m 0 min 0 min 0,0 UV-I 0 W/m 2,6 km/h (1 Bft)
22.01.2014 20:10 1,7 C 0,0 C 92 % 1013,0 hPa 0,0 l/m 0 min 0 min 0,0 UV-I 0 W/m 2,6 km/h (1 Bft)
22.01.2014 20:12 1,7 C 0,0 C 92 % 1013,0 hPa 0,0 l/m 0 min 0 min 0,0 UV-I 0 W/m 2,6 km/h (1 Bft)
22.01.2014 20:14 1,6 C 0,0 C 92 % 1013,0 hPa 0,0 l/m 0 min 0 min 0,0 UV-I 0 W/m 5,1 km/h (1 Bft)
22.01.2014 20:16 1,6 C 0,0 C 92 % 1013,1 hPa 0,0 l/m 0 min 0 min 0,0 UV-I 0 W/m 5,1 km/h (1 Bft)
22.01.2014 20:18 1,6 C 0,0 C 92 % 1013,1 hPa 0,0 l/m 0 min 0 min 0,0 UV-I 0 W/m 0,0 km/h (0 Bft)
22.01.2014 20:20 1,6 C 0,0 C 92 % 1013,1 hPa 0,0 l/m 0 min 0 min 0,0 UV-I 0 W/m 0,0 km/h (0 Bft)
22.01.2014 20:22 1,6 C 0,0 C 92 % 1013,1 hPa 0,0 l/m 0 min 0 min 0,0 UV-I 0 W/m 5,1 km/h (1 Bft)
22.01.2014 20:24 1,6 C 0,0 C 92 % 1013,1 hPa 0,0 l/m 0 min 0 min 0,0 UV-I 0 W/m 0,0 km/h (0 Bft)
22.01.2014 20:26 1,6 C 0,0 C 92 % 1013,1 hPa 0,0 l/m 0 min 0 min 0,0 UV-I 0 W/m 0,0 km/h (0 Bft)
22.01.2014 20:28 1,6 C 0,0 C 92 % 1013,1 hPa 0,0 l/m 0 min 0 min 0,0 UV-I 0 W/m 0,0 km/h (0 Bft)
22.01.2014 20:30 1,5 C 0,0 C 92 % 1013,1 hPa 0,0 l/m 0 min 0 min 0,0 UV-I 0 W/m 7,7 km/h (2 Bft)
22.01.2014 20:32 1,5 C 0,0 C 92 % 1013,1 hPa 0,0 l/m 0 min 0 min 0,0 UV-I 0 W/m 2,6 km/h (1 Bft)
22.01.2014 20:34 1,5 C 0,0 C 92 % 1013,1 hPa 0,0 l/m 0 min 0 min 0,0 UV-I 0 W/m 0,0 km/h (0 Bft)
22.01.2014 20:36 1,5 C 0,0 C 92 % 1013,1 hPa 0,0 l/m 0 min 0 min 0,0 UV-I 0 W/m 0,0 km/h (0 Bft)
22.01.2014 20:38 1,5 C 0,0 C 92 % 1013,3 hPa 0,0 l/m 0 min 0 min 0,0 UV-I 0 W/m 0,0 km/h (0 Bft)
22.01.2014 20:40 1,4 C -0,6 C 92 % 1013,2 hPa 0,0 l/m 0 min 0 min 0,0 UV-I 0 W/m 0,0 km/h (0 Bft)
22.01.2014 20:42 1,4 C -0,6 C 92 % 1013,2 hPa 0,0 l/m 0 min 0 min 0,0 UV-I 0 W/m 0,0 km/h (0 Bft)
22.01.2014 20:44 1,3 C -0,6 C 92 % 1013,2 hPa 0,0 l/m 0 min 0 min 0,0 UV-I 0 W/m 0,0 km/h (0 Bft)
22.01.2014 20:46 1,3 C -0,6 C 92 % 1013,2 hPa 0,0 l/m 0 min 0 min 0,0 UV-I 0 W/m 0,0 km/h (0 Bft)
22.01.2014 20:48 1,3 C -0,6 C 92 % 1013,2 hPa 0,0 l/m 0 min 0 min 0,0 UV-I 0 W/m 2,6 km/h (1 Bft)
22.01.2014 20:50 1,2 C -0,6 C 92 % 1013,2 hPa 0,0 l/m 0 min 0 min 0,0 UV-I 0 W/m 0,0 km/h (0 Bft)
22.01.2014 20:52 1,2 C -0,6 C 92 % 1013,2 hPa 0,0 l/m 0 min 0 min 0,0 UV-I 0 W/m 0,0 km/h (0 Bft)
22.01.2014 20:54 1,2 C -0,6 C 92 % 1013,2 hPa 0,0 l/m 0 min 0 min 0,0 UV-I 0 W/m 0,0 km/h (0 Bft)
22.01.2014 20:56 1,2 C -0,6 C 92 % 1013,3 hPa 0,0 l/m 0 min 0 min 0,0 UV-I 0 W/m 2,6 km/h (1 Bft)
22.01.2014 20:58 1,1 C -0,6 C 92 % 1013,3 hPa 0,0 l/m 0 min 0 min 0,0 UV-I 0 W/m 5,1 km/h (1 Bft)
22.01.2014 21:00 1,1 C -0,6 C 92 % 1013,3 hPa 0,0 l/m 0 min 0 min 0,0 UV-I 0 W/m 5,1 km/h (1 Bft)
22.01.2014 21:02 1,1 C -0,6 C 92 % 1013,3 hPa 0,0 l/m 0 min 0 min 0,0 UV-I 0 W/m 0,0 km/h (0 Bft)
22.01.2014 21:04 1,1 C -0,6 C 92 % 1013,3 hPa 0,0 l/m 0 min 0 min 0,0 UV-I 0 W/m 0,0 km/h (0 Bft)
22.01.2014 21:06 1,0 C -0,6 C 93 % 1013,3 hPa 0,0 l/m 0 min 0 min 0,0 UV-I 0 W/m 7,7 km/h (2 Bft)
22.01.2014 21:08 1,0 C -0,6 C 93 % 1013,3 hPa 0,0 l/m 0 min 0 min 0,0 UV-I 0 W/m 2,6 km/h (1 Bft)
22.01.2014 21:10 1,0 C -0,6 C 93 % 1013,3 hPa 0,0 l/m 0 min 0 min 0,0 UV-I 0 W/m 0,0 km/h (0 Bft)
22.01.2014 21:12 0,9 C -0,6 C 93 % 1013,2 hPa 0,0 l/m 0 min 0 min 0,0 UV-I 0 W/m 7,7 km/h (2 Bft)
22.01.2014 21:14 0,9 C -0,6 C 93 % 1013,3 hPa 0,0 l/m 0 min 0 min 0,0 UV-I 0 W/m 2,6 km/h (1 Bft)
22.01.2014 21:16 0,9 C -0,6 C 93 % 1013,3 hPa 0,0 l/m 0 min 0 min 0,0 UV-I 0 W/m 0,0 km/h (0 Bft)
22.01.2014 21:18 0,9 C -0,6 C 93 % 1013,3 hPa 0,0 l/m 0 min 0 min 0,0 UV-I 0 W/m 0,0 km/h (0 Bft)
22.01.2014 21:20 0,9 C -0,6 C 93 % 1013,4 hPa 0,0 l/m 0 min 0 min 0,0 UV-I 0 W/m 0,0 km/h (0 Bft)
22.01.2014 21:22 0,8 C -0,6 C 93 % 1013,4 hPa 0,0 l/m 0 min 0 min 0,0 UV-I 0 W/m 0,0 km/h (0 Bft)
22.01.2014 21:24 0,8 C -1,1 C 93 % 1013,3 hPa 0,0 l/m 0 min 0 min 0,0 UV-I 0 W/m 2,6 km/h (1 Bft)
22.01.2014 21:26 0,8 C -1,1 C 93 % 1013,5 hPa 0,0 l/m 0 min 0 min 0,0 UV-I 0 W/m 0,0 km/h (0 Bft)
22.01.2014 21:28 0,7 C -0,6 C 93 % 1013,4 hPa 0,0 l/m 0 min 0 min 0,0 UV-I 0 W/m 0,0 km/h (0 Bft)
22.01.2014 21:30 0,7 C -1,1 C 93 % 1013,5 hPa 0,0 l/m 0 min 0 min 0,0 UV-I 0 W/m 2,6 km/h (1 Bft)
22.01.2014 21:32 0,7 C -1,1 C 93 % 1013,5 hPa 0,0 l/m 0 min 0 min 0,0 UV-I 0 W/m 2,6 km/h (1 Bft)
22.01.2014 21:34 0,7 C -1,1 C 93 % 1013,5 hPa 0,0 l/m 0 min 0 min 0,0 UV-I 0 W/m 0,0 km/h (0 Bft)
22.01.2014 21:36 0,6 C -1,1 C 93 % 1013,6 hPa 0,0 l/m 0 min 0 min 0,0 UV-I 0 W/m 0,0 km/h (0 Bft)
22.01.2014 21:38 0,6 C -1,1 C 93 % 1013,6 hPa 0,0 l/m 0 min 0 min 0,0 UV-I 0 W/m 0,0 km/h (0 Bft)
22.01.2014 21:40 0,5 C -1,1 C 93 % 1013,6 hPa 0,0 l/m 0 min 0 min 0,0 UV-I 0 W/m 0,0 km/h (0 Bft)
22.01.2014 21:42 0,5 C -1,1 C 93 % 1013,6 hPa 0,0 l/m 0 min 0 min 0,0 UV-I 0 W/m 0,0 km/h (0 Bft)
22.01.2014 21:44 0,5 C -1,1 C 93 % 1013,6 hPa 0,0 l/m 0 min 0 min 0,0 UV-I 0 W/m 0,0 km/h (0 Bft)
22.01.2014 21:46 0,5 C -1,1 C 94 % 1013,6 hPa 0,0 l/m 0 min 0 min 0,0 UV-I 0 W/m 0,0 km/h (0 Bft)
22.01.2014 21:48 0,5 C -1,1 C 94 % 1013,6 hPa 0,0 l/m 0 min 0 min 0,0 UV-I 0 W/m 2,6 km/h (1 Bft)
22.01.2014 21:50 0,5 C -1,1 C 94 % 1013,7 hPa 0,0 l/m 0 min 0 min 0,0 UV-I 0 W/m 0,0 km/h (0 Bft)
22.01.2014 21:52 0,5 C -1,1 C 94 % 1013,7 hPa 0,0 l/m 0 min 0 min 0,0 UV-I 0 W/m 0,0 km/h (0 Bft)
22.01.2014 21:54 0,4 C -1,1 C 94 % 1013,7 hPa 0,0 l/m 0 min 0 min 0,0 UV-I 0 W/m 2,6 km/h (1 Bft)
22.01.2014 21:56 0,4 C -1,1 C 94 % 1013,8 hPa 0,0 l/m 0 min 0 min 0,0 UV-I 0 W/m 0,0 km/h (0 Bft)
22.01.2014 21:58 0,4 C -1,1 C 94 % 1013,7 hPa 0,0 l/m 0 min 0 min 0,0 UV-I 0 W/m 0,0 km/h (0 Bft)
22.01.2014 22:00 0,4 C -1,1 C 94 % 1013,8 hPa 0,0 l/m 0 min 0 min 0,0 UV-I 0 W/m 0,0 km/h (0 Bft)
22.01.2014 22:02 0,4 C -1,1 C 94 % 1013,7 hPa 0,0 l/m 0 min 0 min 0,0 UV-I 0 W/m 0,0 km/h (0 Bft)
22.01.2014 22:04 0,4 C -1,1 C 94 % 1013,7 hPa 0,0 l/m 0 min 0 min 0,0 UV-I 0 W/m 0,0 km/h (0 Bft)
22.01.2014 22:06 0,3 C -1,7 C 94 % 1013,7 hPa 0,0 l/m 0 min 0 min 0,0 UV-I 0 W/m 0,0 km/h (0 Bft)
22.01.2014 22:08 0,3 C -1,7 C 94 % 1013,8 hPa 0,0 l/m 0 min 0 min 0,0 UV-I 0 W/m 0,0 km/h (0 Bft)
22.01.2014 22:10 0,3 C -1,7 C 94 % 1013,8 hPa 0,0 l/m 0 min 0 min 0,0 UV-I 0 W/m 0,0 km/h (0 Bft)
22.01.2014 22:12 0,2 C -1,7 C 94 % 1013,8 hPa 0,0 l/m 0 min 0 min 0,0 UV-I 0 W/m 2,6 km/h (1 Bft)
22.01.2014 22:14 0,2 C -1,7 C 94 % 1013,7 hPa 0,0 l/m 0 min 0 min 0,0 UV-I 0 W/m 0,0 km/h (0 Bft)
22.01.2014 22:16 0,2 C -1,7 C 94 % 1013,8 hPa 0,0 l/m 0 min 0 min 0,0 UV-I 0 W/m 2,6 km/h (1 Bft)
22.01.2014 22:18 0,2 C -1,7 C 94 % 1013,8 hPa 0,0 l/m 0 min 0 min 0,0 UV-I 0 W/m 0,0 km/h (0 Bft)
22.01.2014 22:20 0,2 C -1,7 C 94 % 1013,9 hPa 0,0 l/m 0 min 0 min 0,0 UV-I 0 W/m 0,0 km/h (0 Bft)
22.01.2014 22:22 0,2 C -1,7 C 94 % 1013,8 hPa 0,0 l/m 0 min 0 min 0,0 UV-I 0 W/m 0,0 km/h (0 Bft)
22.01.2014 22:24 0,2 C -1,7 C 94 % 1013,8 hPa 0,0 l/m 0 min 0 min 0,0 UV-I 0 W/m 0,0 km/h (0 Bft)
22.01.2014 22:26 0,2 C -1,7 C 94 % 1013,9 hPa 0,0 l/m 0 min 0 min 0,0 UV-I 0 W/m 0,0 km/h (0 Bft)
22.01.2014 22:28 0,1 C -1,7 C 94 % 1013,8 hPa 0,0 l/m 0 min 0 min 0,0 UV-I 0 W/m 0,0 km/h (0 Bft)
22.01.2014 22:30 0,1 C -1,7 C 94 % 1013,9 hPa 0,0 l/m 0 min 0 min 0,0 UV-I 0 W/m 2,6 km/h (1 Bft)
22.01.2014 22:32 0,1 C -1,7 C 94 % 1013,8 hPa 0,0 l/m 0 min 0 min 0,0 UV-I 0 W/m 0,0 km/h (0 Bft)
22.01.2014 22:34 0,1 C -1,7 C 94 % 1013,8 hPa 0,0 l/m 0 min 0 min 0,0 UV-I 0 W/m 5,1 km/h (1 Bft)
22.01.2014 22:36 0,1 C -1,7 C 94 % 1013,9 hPa 0,0 l/m 0 min 0 min 0,0 UV-I 0 W/m 2,6 km/h (1 Bft)
22.01.2014 22:38 0,1 C -1,7 C 94 % 1013,8 hPa 0,0 l/m 0 min 0 min 0,0 UV-I 0 W/m 0,0 km/h (0 Bft)
22.01.2014 22:40 0,1 C -1,7 C 94 % 1013,8 hPa 0,0 l/m 0 min 0 min 0,0 UV-I 0 W/m 0,0 km/h (0 Bft)
22.01.2014 22:42 0,0 C -1,7 C 94 % 1013,9 hPa 0,0 l/m 0 min 0 min 0,0 UV-I 0 W/m 0,0 km/h (0 Bft)
22.01.2014 22:44 0,0 C -1,7 C 94 % 1013,8 hPa 0,0 l/m 0 min 0 min 0,0 UV-I 0 W/m 0,0 km/h (0 Bft)
22.01.2014 22:46 -0,1 C -1,7 C 94 % 1013,8 hPa 0,0 l/m 0 min 0 min 0,0 UV-I 0 W/m 2,6 km/h (1 Bft)
22.01.2014 22:48 -0,1 C -1,7 C 94 % 1013,8 hPa 0,0 l/m 0 min 0 min 0,0 UV-I 0 W/m 2,6 km/h (1 Bft)
22.01.2014 22:50 -0,1 C -1,7 C 94 % 1013,9 hPa 0,0 l/m 0 min 0 min 0,0 UV-I 0 W/m 0,0 km/h (0 Bft)
22.01.2014 22:52 -0,1 C -1,7 C 94 % 1013,9 hPa 0,0 l/m 0 min 0 min 0,0 UV-I 0 W/m 0,0 km/h (0 Bft)
22.01.2014 22:54 -0,1 C -1,7 C 94 % 1013,8 hPa 0,0 l/m 0 min 0 min 0,0 UV-I 0 W/m 0,0 km/h (0 Bft)
22.01.2014 22:56 -0,1 C -1,7 C 94 % 1013,8 hPa 0,0 l/m 0 min 0 min 0,0 UV-I 0 W/m 0,0 km/h (0 Bft)
22.01.2014 22:58 -0,1 C -2,2 C 94 % 1013,9 hPa 0,0 l/m 0 min 0 min 0,0 UV-I 0 W/m 2,6 km/h (1 Bft)
22.01.2014 23:00 -0,2 C -2,2 C 94 % 1013,8 hPa 0,0 l/m 0 min 0 min 0,0 UV-I 0 W/m 2,6 km/h (1 Bft)
22.01.2014 23:02 -0,2 C -2,2 C 94 % 1013,8 hPa 0,0 l/m 0 min 0 min 0,0 UV-I 0 W/m 0,0 km/h (0 Bft)
22.01.2014 23:04 -0,2 C -2,2 C 94 % 1013,8 hPa 0,0 l/m 0 min 0 min 0,0 UV-I 0 W/m 0,0 km/h (0 Bft)
22.01.2014 23:06 -0,2 C -2,2 C 94 % 1013,9 hPa 0,0 l/m 0 min 0 min 0,0 UV-I 0 W/m 2,6 km/h (1 Bft)
22.01.2014 23:08 -0,2 C -2,2 C 94 % 1013,8 hPa 0,0 l/m 0 min 0 min 0,0 UV-I 0 W/m 0,0 km/h (0 Bft)
22.01.2014 23:10 -0,2 C -2,2 C 94 % 1013,8 hPa 0,0 l/m 0 min 0 min 0,0 UV-I 0 W/m 0,0 km/h (0 Bft)
22.01.2014 23:12 -0,2 C -2,2 C 94 % 1013,9 hPa 0,0 l/m 0 min 0 min 0,0 UV-I 0 W/m 0,0 km/h (0 Bft)
22.01.2014 23:14 -0,3 C -2,2 C 95 % 1013,8 hPa 0,0 l/m 0 min 0 min 0,0 UV-I 0 W/m 0,0 km/h (0 Bft)
22.01.2014 23:16 -0,3 C -2,2 C 94 % 1013,9 hPa 0,0 l/m 0 min 0 min 0,0 UV-I 0 W/m 0,0 km/h (0 Bft)
22.01.2014 23:18 -0,3 C -2,2 C 94 % 1013,9 hPa 0,0 l/m 0 min 0 min 0,0 UV-I 0 W/m 0,0 km/h (0 Bft)
22.01.2014 23:20 -0,3 C -2,2 C 94 % 1013,9 hPa 0,0 l/m 0 min 0 min 0,0 UV-I 0 W/m 0,0 km/h (0 Bft)
22.01.2014 23:22 -0,3 C -2,2 C 94 % 1013,9 hPa 0,0 l/m 0 min 0 min 0,0 UV-I 0 W/m 0,0 km/h (0 Bft)
22.01.2014 23:24 -0,4 C -2,2 C 94 % 1013,8 hPa 0,0 l/m 0 min 0 min 0,0 UV-I 0 W/m 0,0 km/h (0 Bft)
22.01.2014 23:26 -0,4 C -2,2 C 94 % 1013,8 hPa 0,0 l/m 0 min 0 min 0,0 UV-I 0 W/m 0,0 km/h (0 Bft)
22.01.2014 23:28 -0,4 C -2,2 C 94 % 1013,8 hPa 0,0 l/m 0 min 0 min 0,0 UV-I 0 W/m 0,0 km/h (0 Bft)
22.01.2014 23:30 -0,4 C -2,2 C 94 % 1013,9 hPa 0,0 l/m 0 min 0 min 0,0 UV-I 0 W/m 0,0 km/h (0 Bft)
22.01.2014 23:32 -0,4 C -2,2 C 94 % 1013,8 hPa 0,0 l/m 0 min 0 min 0,0 UV-I 0 W/m 0,0 km/h (0 Bft)
22.01.2014 23:34 -0,5 C -2,2 C 95 % 1013,9 hPa 0,0 l/m 0 min 0 min 0,0 UV-I 0 W/m 0,0 km/h (0 Bft)
22.01.2014 23:36 -0,5 C -2,2 C 95 % 1013,8 hPa 0,0 l/m 0 min 0 min 0,0 UV-I 0 W/m 0,0 km/h (0 Bft)
22.01.2014 23:38 -0,6 C -2,2 C 95 % 1013,9 hPa 0,0 l/m 0 min 0 min 0,0 UV-I 0 W/m 0,0 km/h (0 Bft)
22.01.2014 23:40 -0,5 C -2,2 C 95 % 1013,9 hPa 0,0 l/m 0 min 0 min 0,0 UV-I 0 W/m 2,6 km/h (1 Bft)
22.01.2014 23:42 -0,5 C -2,2 C 95 % 1013,8 hPa 0,0 l/m 0 min 0 min 0,0 UV-I 0 W/m 5,1 km/h (1 Bft)
22.01.2014 23:44 -0,4 C -2,2 C 95 % 1013,9 hPa 0,0 l/m 0 min 0 min 0,0 UV-I 0 W/m 0,0 km/h (0 Bft)
22.01.2014 23:46 -0,4 C -2,2 C 95 % 1013,9 hPa 0,0 l/m 0 min 0 min 0,0 UV-I 0 W/m 0,0 km/h (0 Bft)
22.01.2014 23:48 -0,4 C -2,2 C 95 % 1014,0 hPa 0,0 l/m 0 min 0 min 0,0 UV-I 0 W/m 0,0 km/h (0 Bft)
22.01.2014 23:50 -0,4 C -2,2 C 95 % 1013,9 hPa 0,0 l/m 0 min 0 min 0,0 UV-I 0 W/m 0,0 km/h (0 Bft)
22.01.2014 23:52 -0,4 C -2,2 C 95 % 1013,9 hPa 0,0 l/m 0 min 0 min 0,0 UV-I 0 W/m 0,0 km/h (0 Bft)
22.01.2014 23:54 -0,5 C -2,2 C 95 % 1013,9 hPa 0,0 l/m 0 min 0 min 0,0 UV-I 0 W/m 0,0 km/h (0 Bft)
22.01.2014 23:56 -0,5 C -2,2 C 95 % 1014,0 hPa 0,0 l/m 0 min 0 min 0,0 UV-I 0 W/m 0,0 km/h (0 Bft)
22.01.2014 23:58 -0,6 C -2,2 C 95 % 1014,0 hPa 0,0 l/m 0 min 0 min 0,0 UV-I 0 W/m 0,0 km/h (0 Bft)
_ Min-Zeit 23:38 22:58 13:30 14:18 - - - - - 00:00
Minimum _ -0,6 C -2,2 C 77 % 1011,0 hPa - - - - - 0,0 km/h (0 Bft)
_ Max-Zeit 14:10 14:10 00:00 23:48 00:00 11:50 00:00 00:00 11:52 09:58
Maximum _ 6,7 C 5,6 C 95 % 1014,0 hPa 0,0 l/m 2 min 0 min 0,0 UV-I 320 W/m 33,5 km/h
SO (5 Bft)
Durchschnitt _ 3,2 C 1,8 C 91 % 1012,3 hPa #0,0 l/m #3:20 h #0 min. 0,0 UV-I 132 W/m 3,9 km/h (1 Bft)
© 2014 W. Hausmann